<?xml version="1.0" encoding="UTF-8" standalone="no" ?>
<gpx xmlns="http://www.topografix.com/GPX/1/1" creator="MapSource 6.16.3" version="1.1" xmlns:xsi="http://www.w3.org/2001/XMLSchema-instance" xsi:schemaLocation="http://www.topografix.com/GPX/1/1 http://www.topografix.com/GPX/1/1/gpx.xsd">

  <metadata>
    <link href="http://www.garmin.com">
      <text>Garmin International</text>
    </link>
    <time>2016-09-17T07:31:40Z</time>
    <bounds maxlat="44.325628280639648" maxlon="11.405782699584961" minlat="44.262070655822754" minlon="11.369068622589111"/>
  </metadata>

  <trk>
    <name>ACTIVE LOG</name>
    <trkseg>
      <trkpt lat="44.323267936706543" lon="11.404194831848145">
        <ele>204.41749999999999</ele>
        <time>2005-10-09T06:52:48Z</time>
      </trkpt>
      <trkpt lat="44.323267936706543" lon="11.404366493225098">
        <ele>204.41749999999999</ele>
        <time>2005-10-09T06:53:02Z</time>
      </trkpt>
      <trkpt lat="44.323503971099854" lon="11.404473781585693">
        <ele>205.37880000000001</ele>
        <time>2005-10-09T06:53:16Z</time>
      </trkpt>
      <trkpt lat="44.323697090148926" lon="11.404709815979004">
        <ele>204.8981</ele>
        <time>2005-10-09T06:53:27Z</time>
      </trkpt>
      <trkpt lat="44.323632717132568" lon="11.404881477355957">
        <ele>204.8981</ele>
        <time>2005-10-09T06:53:32Z</time>
      </trkpt>
      <trkpt lat="44.323053359985352" lon="11.405375003814697">
        <ele>205.8595</ele>
        <time>2005-10-09T06:53:51Z</time>
      </trkpt>
      <trkpt lat="44.322452545166016" lon="11.405482292175293">
        <ele>206.82069999999999</ele>
        <time>2005-10-09T06:54:09Z</time>
      </trkpt>
      <trkpt lat="44.322023391723633" lon="11.40556812286377">
        <ele>209.22409999999999</ele>
        <time>2005-10-09T06:54:26Z</time>
      </trkpt>
      <trkpt lat="44.321401119232178" lon="11.405782699584961">
        <ele>212.58860000000001</ele>
        <time>2005-10-09T06:54:48Z</time>
      </trkpt>
      <trkpt lat="44.320864677429199" lon="11.405589580535889">
        <ele>212.58860000000001</ele>
        <time>2005-10-09T06:55:06Z</time>
      </trkpt>
      <trkpt lat="44.320499897003174" lon="11.405096054077148">
        <ele>214.99189999999999</ele>
        <time>2005-10-09T06:55:23Z</time>
      </trkpt>
      <trkpt lat="44.320156574249268" lon="11.404452323913574">
        <ele>216.91470000000001</ele>
        <time>2005-10-09T06:55:43Z</time>
      </trkpt>
      <trkpt lat="44.319877624511719" lon="11.403894424438477">
        <ele>218.8373</ele>
        <time>2005-10-09T06:56:01Z</time>
      </trkpt>
      <trkpt lat="44.319469928741455" lon="11.403229236602783">
        <ele>220.75989999999999</ele>
        <time>2005-10-09T06:56:22Z</time>
      </trkpt>
      <trkpt lat="44.318954944610596" lon="11.40305757522583">
        <ele>220.2792</ele>
        <time>2005-10-09T06:56:38Z</time>
      </trkpt>
      <trkpt lat="44.318268299102783" lon="11.402993202209473">
        <ele>219.31800000000001</ele>
        <time>2005-10-09T06:56:57Z</time>
      </trkpt>
      <trkpt lat="44.317581653594971" lon="11.403357982635498">
        <ele>216.91470000000001</ele>
        <time>2005-10-09T06:57:12Z</time>
      </trkpt>
      <trkpt lat="44.316680431365967" lon="11.40355110168457">
        <ele>216.434</ele>
        <time>2005-10-09T06:57:32Z</time>
      </trkpt>
      <trkpt lat="44.316465854644775" lon="11.403615474700928">
        <ele>216.434</ele>
        <time>2005-10-09T06:57:37Z</time>
      </trkpt>
      <trkpt lat="44.316294193267822" lon="11.403572559356689">
        <ele>216.434</ele>
        <time>2005-10-09T06:57:41Z</time>
      </trkpt>
      <trkpt lat="44.316122531890869" lon="11.403422355651855">
        <ele>216.434</ele>
        <time>2005-10-09T06:57:45Z</time>
      </trkpt>
      <trkpt lat="44.315521717071533" lon="11.402628421783447">
        <ele>216.91470000000001</ele>
        <time>2005-10-09T06:58:04Z</time>
      </trkpt>
      <trkpt lat="44.315242767333984" lon="11.402370929718018">
        <ele>216.434</ele>
        <time>2005-10-09T06:58:11Z</time>
      </trkpt>
      <trkpt lat="44.31485652923584" lon="11.402177810668945">
        <ele>216.91470000000001</ele>
        <time>2005-10-09T06:58:20Z</time>
      </trkpt>
      <trkpt lat="44.313976764678955" lon="11.402156352996826">
        <ele>215.95320000000001</ele>
        <time>2005-10-09T06:58:41Z</time>
      </trkpt>
      <trkpt lat="44.313418865203857" lon="11.401576995849609">
        <ele>216.434</ele>
        <time>2005-10-09T06:58:58Z</time>
      </trkpt>
      <trkpt lat="44.312903881072998" lon="11.400911808013916">
        <ele>217.3954</ele>
        <time>2005-10-09T06:59:16Z</time>
      </trkpt>
      <trkpt lat="44.312217235565186" lon="11.400547027587891">
        <ele>219.31800000000001</ele>
        <time>2005-10-09T06:59:36Z</time>
      </trkpt>
      <trkpt lat="44.311745166778564" lon="11.400418281555176">
        <ele>223.16319999999999</ele>
        <time>2005-10-09T06:59:51Z</time>
      </trkpt>
      <trkpt lat="44.311165809631348" lon="11.400504112243652">
        <ele>223.16319999999999</ele>
        <time>2005-10-09T07:00:09Z</time>
      </trkpt>
      <trkpt lat="44.310393333435059" lon="11.400396823883057">
        <ele>223.16319999999999</ele>
        <time>2005-10-09T07:00:29Z</time>
      </trkpt>
      <trkpt lat="44.309663772583008" lon="11.400096416473389">
        <ele>224.12450000000001</ele>
        <time>2005-10-09T07:00:48Z</time>
      </trkpt>
      <trkpt lat="44.309470653533936" lon="11.399946212768555">
        <ele>223.6438</ele>
        <time>2005-10-09T07:00:53Z</time>
      </trkpt>
      <trkpt lat="44.308912754058838" lon="11.3993239402771">
        <ele>223.6438</ele>
        <time>2005-10-09T07:01:10Z</time>
      </trkpt>
      <trkpt lat="44.308676719665527" lon="11.399173736572266">
        <ele>223.16319999999999</ele>
        <time>2005-10-09T07:01:16Z</time>
      </trkpt>
      <trkpt lat="44.307668209075928" lon="11.398916244506836">
        <ele>224.12450000000001</ele>
        <time>2005-10-09T07:01:41Z</time>
      </trkpt>
      <trkpt lat="44.306981563568115" lon="11.398873329162598">
        <ele>223.6438</ele>
        <time>2005-10-09T07:02:00Z</time>
      </trkpt>
      <trkpt lat="44.305887222290039" lon="11.398830413818359">
        <ele>225.08590000000001</ele>
        <time>2005-10-09T07:02:29Z</time>
      </trkpt>
      <trkpt lat="44.305136203765869" lon="11.398959159851074">
        <ele>226.52780000000001</ele>
        <time>2005-10-09T07:02:51Z</time>
      </trkpt>
      <trkpt lat="44.304342269897461" lon="11.399023532867432">
        <ele>225.56649999999999</ele>
        <time>2005-10-09T07:03:10Z</time>
      </trkpt>
      <trkpt lat="44.303312301635742" lon="11.399023532867432">
        <ele>226.0471</ele>
        <time>2005-10-09T07:03:35Z</time>
      </trkpt>
      <trkpt lat="44.302282333374023" lon="11.398701667785645">
        <ele>227.96969999999999</ele>
        <time>2005-10-09T07:04:01Z</time>
      </trkpt>
      <trkpt lat="44.301402568817139" lon="11.398422718048096">
        <ele>230.37299999999999</ele>
        <time>2005-10-09T07:04:25Z</time>
      </trkpt>
      <trkpt lat="44.300501346588135" lon="11.398100852966309">
        <ele>231.33439999999999</ele>
        <time>2005-10-09T07:04:49Z</time>
      </trkpt>
      <trkpt lat="44.299836158752441" lon="11.397886276245117">
        <ele>234.69909999999999</ele>
        <time>2005-10-09T07:05:07Z</time>
      </trkpt>
      <trkpt lat="44.299213886260986" lon="11.397907733917236">
        <ele>237.10230000000001</ele>
        <time>2005-10-09T07:05:24Z</time>
      </trkpt>
      <trkpt lat="44.298741817474365" lon="11.3983154296875">
        <ele>238.06360000000001</ele>
        <time>2005-10-09T07:05:38Z</time>
      </trkpt>
      <trkpt lat="44.297926425933838" lon="11.398615837097168">
        <ele>239.50550000000001</ele>
        <time>2005-10-09T07:05:59Z</time>
      </trkpt>
      <trkpt lat="44.297153949737549" lon="11.398487091064453">
        <ele>241.4282</ele>
        <time>2005-10-09T07:06:19Z</time>
      </trkpt>
      <trkpt lat="44.296252727508545" lon="11.398272514343262">
        <ele>242.87020000000001</ele>
        <time>2005-10-09T07:06:41Z</time>
      </trkpt>
      <trkpt lat="44.295437335968018" lon="11.398444175720215">
        <ele>243.35079999999999</ele>
        <time>2005-10-09T07:07:00Z</time>
      </trkpt>
      <trkpt lat="44.295265674591064" lon="11.398079395294189">
        <ele>242.87020000000001</ele>
        <time>2005-10-09T07:07:08Z</time>
      </trkpt>
      <trkpt lat="44.295287132263184" lon="11.397414207458496">
        <ele>242.87020000000001</ele>
        <time>2005-10-09T07:07:18Z</time>
      </trkpt>
      <trkpt lat="44.295029640197754" lon="11.396942138671875">
        <ele>240.94759999999999</ele>
        <time>2005-10-09T07:07:26Z</time>
      </trkpt>
      <trkpt lat="44.294257164001465" lon="11.396749019622803">
        <ele>239.0249</ele>
        <time>2005-10-09T07:07:39Z</time>
      </trkpt>
      <trkpt lat="44.293355941772461" lon="11.396427154541016">
        <ele>239.50550000000001</ele>
        <time>2005-10-09T07:07:56Z</time>
      </trkpt>
      <trkpt lat="44.292240142822266" lon="11.39582633972168">
        <ele>242.87020000000001</ele>
        <time>2005-10-09T07:08:22Z</time>
      </trkpt>
      <trkpt lat="44.291317462921143" lon="11.395354270935059">
        <ele>245.7542</ele>
        <time>2005-10-09T07:08:45Z</time>
      </trkpt>
      <trkpt lat="44.290673732757568" lon="11.395139694213867">
        <ele>249.11879999999999</ele>
        <time>2005-10-09T07:09:01Z</time>
      </trkpt>
      <trkpt lat="44.289793968200684" lon="11.394882202148438">
        <ele>251.52209999999999</ele>
        <time>2005-10-09T07:09:23Z</time>
      </trkpt>
      <trkpt lat="44.289000034332275" lon="11.394731998443604">
        <ele>251.52209999999999</ele>
        <time>2005-10-09T07:09:41Z</time>
      </trkpt>
      <trkpt lat="44.287991523742676" lon="11.394410133361816">
        <ele>251.52209999999999</ele>
        <time>2005-10-09T07:10:02Z</time>
      </trkpt>
      <trkpt lat="44.287261962890625" lon="11.394453048706055">
        <ele>254.88659999999999</ele>
        <time>2005-10-09T07:10:19Z</time>
      </trkpt>
      <trkpt lat="44.287004470825195" lon="11.394410133361816">
        <ele>256.32870000000003</ele>
        <time>2005-10-09T07:10:25Z</time>
      </trkpt>
      <trkpt lat="44.286339282989502" lon="11.394023895263672">
        <ele>257.77080000000001</ele>
        <time>2005-10-09T07:10:42Z</time>
      </trkpt>
      <trkpt lat="44.285867214202881" lon="11.393401622772217">
        <ele>257.77080000000001</ele>
        <time>2005-10-09T07:10:56Z</time>
      </trkpt>
      <trkpt lat="44.285244941711426" lon="11.392543315887451">
        <ele>258.25130000000001</ele>
        <time>2005-10-09T07:11:13Z</time>
      </trkpt>
      <trkpt lat="44.284343719482422" lon="11.391963958740234">
        <ele>258.7319</ele>
        <time>2005-10-09T07:11:32Z</time>
      </trkpt>
      <trkpt lat="44.283335208892822" lon="11.391792297363281">
        <ele>257.77080000000001</ele>
        <time>2005-10-09T07:11:53Z</time>
      </trkpt>
      <trkpt lat="44.282991886138916" lon="11.391899585723877">
        <ele>258.25130000000001</ele>
        <time>2005-10-09T07:12:01Z</time>
      </trkpt>
      <trkpt lat="44.282820224761963" lon="11.391878128051758">
        <ele>257.77080000000001</ele>
        <time>2005-10-09T07:12:05Z</time>
      </trkpt>
      <trkpt lat="44.282240867614746" lon="11.391341686248779">
        <ele>259.21260000000001</ele>
        <time>2005-10-09T07:12:23Z</time>
      </trkpt>
      <trkpt lat="44.281597137451172" lon="11.390848159790039">
        <ele>262.57709999999997</ele>
        <time>2005-10-09T07:12:45Z</time>
      </trkpt>
      <trkpt lat="44.281275272369385" lon="11.390676498413086">
        <ele>262.57709999999997</ele>
        <time>2005-10-09T07:12:55Z</time>
      </trkpt>
      <trkpt lat="44.280567169189453" lon="11.390504837036133">
        <ele>262.57709999999997</ele>
        <time>2005-10-09T07:13:13Z</time>
      </trkpt>
      <trkpt lat="44.280481338500977" lon="11.390483379364014">
        <ele>262.57709999999997</ele>
        <time>2005-10-09T07:13:15Z</time>
      </trkpt>
      <trkpt lat="44.279623031616211" lon="11.390376091003418">
        <ele>260.65449999999998</ele>
        <time>2005-10-09T07:13:34Z</time>
      </trkpt>
      <trkpt lat="44.278721809387207" lon="11.390225887298584">
        <ele>260.65449999999998</ele>
        <time>2005-10-09T07:13:52Z</time>
      </trkpt>
      <trkpt lat="44.277627468109131" lon="11.389775276184082">
        <ele>261.13529999999997</ele>
        <time>2005-10-09T07:14:14Z</time>
      </trkpt>
      <trkpt lat="44.276618957519531" lon="11.389131546020508">
        <ele>261.61599999999999</ele>
        <time>2005-10-09T07:14:36Z</time>
      </trkpt>
      <trkpt lat="44.275846481323242" lon="11.388423442840576">
        <ele>264.49990000000003</ele>
        <time>2005-10-09T07:14:57Z</time>
      </trkpt>
      <trkpt lat="44.275374412536621" lon="11.388423442840576">
        <ele>265.94189999999998</ele>
        <time>2005-10-09T07:15:09Z</time>
      </trkpt>
      <trkpt lat="44.275116920471191" lon="11.388638019561768">
        <ele>267.38389999999998</ele>
        <time>2005-10-09T07:15:16Z</time>
      </trkpt>
      <trkpt lat="44.274837970733643" lon="11.388852596282959">
        <ele>268.3451</ele>
        <time>2005-10-09T07:15:24Z</time>
      </trkpt>
      <trkpt lat="44.274601936340332" lon="11.388616561889648">
        <ele>268.82580000000002</ele>
        <time>2005-10-09T07:15:32Z</time>
      </trkpt>
      <trkpt lat="44.274451732635498" lon="11.388101577758789">
        <ele>268.3451</ele>
        <time>2005-10-09T07:15:41Z</time>
      </trkpt>
      <trkpt lat="44.274387359619141" lon="11.387994289398193">
        <ele>268.82580000000002</ele>
        <time>2005-10-09T07:15:43Z</time>
      </trkpt>
      <trkpt lat="44.274301528930664" lon="11.387865543365479">
        <ele>268.82580000000002</ele>
        <time>2005-10-09T07:15:46Z</time>
      </trkpt>
      <trkpt lat="44.273571968078613" lon="11.38707160949707">
        <ele>269.30650000000003</ele>
        <time>2005-10-09T07:16:06Z</time>
      </trkpt>
      <trkpt lat="44.27290678024292" lon="11.38707160949707">
        <ele>272.19040000000001</ele>
        <time>2005-10-09T07:16:24Z</time>
      </trkpt>
      <trkpt lat="44.272820949554443" lon="11.386728286743164">
        <ele>275.0745</ele>
        <time>2005-10-09T07:16:33Z</time>
      </trkpt>
      <trkpt lat="44.27290678024292" lon="11.38608455657959">
        <ele>277.95830000000001</ele>
        <time>2005-10-09T07:16:47Z</time>
      </trkpt>
      <trkpt lat="44.272756576538086" lon="11.385226249694824">
        <ele>281.32299999999998</ele>
        <time>2005-10-09T07:17:04Z</time>
      </trkpt>
      <trkpt lat="44.272606372833252" lon="11.384968757629395">
        <ele>281.32299999999998</ele>
        <time>2005-10-09T07:17:10Z</time>
      </trkpt>
      <trkpt lat="44.271855354309082" lon="11.384603977203369">
        <ele>282.76499999999999</ele>
        <time>2005-10-09T07:17:28Z</time>
      </trkpt>
      <trkpt lat="44.271211624145508" lon="11.38458251953125">
        <ele>285.64879999999999</ele>
        <time>2005-10-09T07:17:43Z</time>
      </trkpt>
      <trkpt lat="44.270095825195312" lon="11.384196281433105">
        <ele>287.0908</ele>
        <time>2005-10-09T07:18:08Z</time>
      </trkpt>
      <trkpt lat="44.269881248474121" lon="11.384131908416748">
        <ele>288.05220000000003</ele>
        <time>2005-10-09T07:18:12Z</time>
      </trkpt>
      <trkpt lat="44.269301891326904" lon="11.383938789367676">
        <ele>289.01350000000002</ele>
        <time>2005-10-09T07:18:23Z</time>
      </trkpt>
      <trkpt lat="44.269108772277832" lon="11.383788585662842">
        <ele>289.01350000000002</ele>
        <time>2005-10-09T07:18:27Z</time>
      </trkpt>
      <trkpt lat="44.268958568572998" lon="11.383552551269531">
        <ele>289.4941</ele>
        <time>2005-10-09T07:18:31Z</time>
      </trkpt>
      <trkpt lat="44.268722534179688" lon="11.383059024810791">
        <ele>289.4941</ele>
        <time>2005-10-09T07:18:39Z</time>
      </trkpt>
      <trkpt lat="44.268207550048828" lon="11.38258695602417">
        <ele>290.4556</ele>
        <time>2005-10-09T07:18:51Z</time>
      </trkpt>
      <trkpt lat="44.268035888671875" lon="11.382308006286621">
        <ele>289.97489999999999</ele>
        <time>2005-10-09T07:18:56Z</time>
      </trkpt>
      <trkpt lat="44.267756938934326" lon="11.382157802581787">
        <ele>289.97489999999999</ele>
        <time>2005-10-09T07:19:02Z</time>
      </trkpt>
      <trkpt lat="44.266834259033203" lon="11.381793022155762">
        <ele>289.97489999999999</ele>
        <time>2005-10-09T07:19:20Z</time>
      </trkpt>
      <trkpt lat="44.26640510559082" lon="11.381535530090332">
        <ele>287.57139999999998</ele>
        <time>2005-10-09T07:19:28Z</time>
      </trkpt>
      <trkpt lat="44.266147613525391" lon="11.38134241104126">
        <ele>284.68759999999997</ele>
        <time>2005-10-09T07:19:36Z</time>
      </trkpt>
      <trkpt lat="44.266083240509033" lon="11.381235122680664">
        <ele>285.64879999999999</ele>
        <time>2005-10-09T07:19:56Z</time>
      </trkpt>
      <trkpt lat="44.265975952148438" lon="11.381106376647949">
        <ele>288.05220000000003</ele>
        <time>2005-10-09T07:20:05Z</time>
      </trkpt>
      <trkpt lat="44.265825748443604" lon="11.380956172943115">
        <ele>291.41669999999999</ele>
        <time>2005-10-09T07:20:17Z</time>
      </trkpt>
      <trkpt lat="44.265697002410889" lon="11.380741596221924">
        <ele>294.30079999999998</ele>
        <time>2005-10-09T07:20:31Z</time>
      </trkpt>
      <trkpt lat="44.265632629394531" lon="11.380612850189209">
        <ele>296.70409999999998</ele>
        <time>2005-10-09T07:20:39Z</time>
      </trkpt>
      <trkpt lat="44.265396595001221" lon="11.380419731140137">
        <ele>299.10730000000001</ele>
        <time>2005-10-09T07:20:58Z</time>
      </trkpt>
      <trkpt lat="44.265182018280029" lon="11.380269527435303">
        <ele>301.99130000000002</ele>
        <time>2005-10-09T07:21:15Z</time>
      </trkpt>
      <trkpt lat="44.264967441558838" lon="11.380140781402588">
        <ele>304.87520000000001</ele>
        <time>2005-10-09T07:21:32Z</time>
      </trkpt>
      <trkpt lat="44.2649245262146" lon="11.380140781402588">
        <ele>306.31729999999999</ele>
        <time>2005-10-09T07:21:34Z</time>
      </trkpt>
      <trkpt lat="44.264709949493408" lon="11.380033493041992">
        <ele>309.20119999999997</ele>
        <time>2005-10-09T07:21:49Z</time>
      </trkpt>
      <trkpt lat="44.26466703414917" lon="11.379969120025635">
        <ele>310.16250000000002</ele>
        <time>2005-10-09T07:21:53Z</time>
      </trkpt>
      <trkpt lat="44.264752864837646" lon="11.379883289337158">
        <ele>313.04649999999998</ele>
        <time>2005-10-09T07:22:02Z</time>
      </trkpt>
      <trkpt lat="44.265031814575195" lon="11.379818916320801">
        <ele>314.00779999999997</ele>
        <time>2005-10-09T07:22:19Z</time>
      </trkpt>
      <trkpt lat="44.265353679656982" lon="11.379733085632324">
        <ele>315.93040000000002</ele>
        <time>2005-10-09T07:22:37Z</time>
      </trkpt>
      <trkpt lat="44.265589714050293" lon="11.379733085632324">
        <ele>319.29500000000002</ele>
        <time>2005-10-09T07:22:50Z</time>
      </trkpt>
      <trkpt lat="44.265847206115723" lon="11.379711627960205">
        <ele>322.17899999999997</ele>
        <time>2005-10-09T07:23:06Z</time>
      </trkpt>
      <trkpt lat="44.265997409820557" lon="11.379454135894775">
        <ele>325.54360000000003</ele>
        <time>2005-10-09T07:23:22Z</time>
      </trkpt>
      <trkpt lat="44.266061782836914" lon="11.379153728485107">
        <ele>327.46620000000001</ele>
        <time>2005-10-09T07:23:36Z</time>
      </trkpt>
      <trkpt lat="44.266018867492676" lon="11.37908935546875">
        <ele>328.42759999999998</ele>
        <time>2005-10-09T07:23:40Z</time>
      </trkpt>
      <trkpt lat="44.265890121459961" lon="11.378853321075439">
        <ele>331.7921</ele>
        <time>2005-10-09T07:23:53Z</time>
      </trkpt>
      <trkpt lat="44.265825748443604" lon="11.378552913665771">
        <ele>335.1567</ele>
        <time>2005-10-09T07:24:06Z</time>
      </trkpt>
      <trkpt lat="44.265718460083008" lon="11.378316879272461">
        <ele>337.56009999999998</ele>
        <time>2005-10-09T07:24:22Z</time>
      </trkpt>
      <trkpt lat="44.26567554473877" lon="11.378445625305176">
        <ele>339.00209999999998</ele>
        <time>2005-10-09T07:24:28Z</time>
      </trkpt>
      <trkpt lat="44.265482425689697" lon="11.378552913665771">
        <ele>341.40530000000001</ele>
        <time>2005-10-09T07:24:41Z</time>
      </trkpt>
      <trkpt lat="44.265460968017578" lon="11.378531455993652">
        <ele>341.88600000000002</ele>
        <time>2005-10-09T07:24:42Z</time>
      </trkpt>
      <trkpt lat="44.265224933624268" lon="11.378231048583984">
        <ele>345.25060000000002</ele>
        <time>2005-10-09T07:25:00Z</time>
      </trkpt>
      <trkpt lat="44.264967441558838" lon="11.378188133239746">
        <ele>348.13459999999998</ele>
        <time>2005-10-09T07:25:16Z</time>
      </trkpt>
      <trkpt lat="44.2649245262146" lon="11.378188133239746">
        <ele>349.57650000000001</ele>
        <time>2005-10-09T07:25:19Z</time>
      </trkpt>
      <trkpt lat="44.264774322509766" lon="11.378123760223389">
        <ele>352.94119999999998</ele>
        <time>2005-10-09T07:25:30Z</time>
      </trkpt>
      <trkpt lat="44.264774322509766" lon="11.377995014190674">
        <ele>352.94119999999998</ele>
        <time>2005-10-09T07:25:36Z</time>
      </trkpt>
      <trkpt lat="44.265031814575195" lon="11.377823352813721">
        <ele>355.34449999999998</ele>
        <time>2005-10-09T07:25:54Z</time>
      </trkpt>
      <trkpt lat="44.265267848968506" lon="11.377673149108887">
        <ele>358.709</ele>
        <time>2005-10-09T07:26:10Z</time>
      </trkpt>
      <trkpt lat="44.265482425689697" lon="11.377437114715576">
        <ele>361.59309999999999</ele>
        <time>2005-10-09T07:26:25Z</time>
      </trkpt>
      <trkpt lat="44.265739917755127" lon="11.377050876617432">
        <ele>364.4769</ele>
        <time>2005-10-09T07:26:47Z</time>
      </trkpt>
      <trkpt lat="44.266083240509033" lon="11.376965045928955">
        <ele>366.8802</ele>
        <time>2005-10-09T07:27:08Z</time>
      </trkpt>
      <trkpt lat="44.266469478607178" lon="11.377136707305908">
        <ele>368.803</ele>
        <time>2005-10-09T07:27:32Z</time>
      </trkpt>
      <trkpt lat="44.266684055328369" lon="11.377029418945313">
        <ele>371.68689999999998</ele>
        <time>2005-10-09T07:27:50Z</time>
      </trkpt>
      <trkpt lat="44.266533851623535" lon="11.376814842224121">
        <ele>374.57080000000002</ele>
        <time>2005-10-09T07:28:04Z</time>
      </trkpt>
      <trkpt lat="44.266297817230225" lon="11.376364231109619">
        <ele>376.49349999999998</ele>
        <time>2005-10-09T07:28:26Z</time>
      </trkpt>
      <trkpt lat="44.266126155853271" lon="11.376063823699951">
        <ele>378.89690000000002</ele>
        <time>2005-10-09T07:28:43Z</time>
      </trkpt>
      <trkpt lat="44.265847206115723" lon="11.376020908355713">
        <ele>380.33870000000002</ele>
        <time>2005-10-09T07:29:01Z</time>
      </trkpt>
      <trkpt lat="44.265697002410889" lon="11.376020908355713">
        <ele>383.70319999999998</ele>
        <time>2005-10-09T07:29:10Z</time>
      </trkpt>
      <trkpt lat="44.265460968017578" lon="11.37584924697876">
        <ele>386.10669999999999</ele>
        <time>2005-10-09T07:29:27Z</time>
      </trkpt>
      <trkpt lat="44.265182018280029" lon="11.375892162322998">
        <ele>389.47120000000001</ele>
        <time>2005-10-09T07:29:43Z</time>
      </trkpt>
      <trkpt lat="44.264860153198242" lon="11.37584924697876">
        <ele>391.87450000000001</ele>
        <time>2005-10-09T07:30:02Z</time>
      </trkpt>
      <trkpt lat="44.264538288116455" lon="11.375741958618164">
        <ele>394.75850000000003</ele>
        <time>2005-10-09T07:30:22Z</time>
      </trkpt>
      <trkpt lat="44.264302253723145" lon="11.375634670257568">
        <ele>396.68119999999999</ele>
        <time>2005-10-09T07:30:38Z</time>
      </trkpt>
      <trkpt lat="44.264152050018311" lon="11.37535572052002">
        <ele>397.1617</ele>
        <time>2005-10-09T07:30:57Z</time>
      </trkpt>
      <trkpt lat="44.263980388641357" lon="11.375119686126709">
        <ele>398.1232</ele>
        <time>2005-10-09T07:31:13Z</time>
      </trkpt>
      <trkpt lat="44.263701438903809" lon="11.374969482421875">
        <ele>399.56509999999997</ele>
        <time>2005-10-09T07:31:32Z</time>
      </trkpt>
      <trkpt lat="44.263508319854736" lon="11.374797821044922">
        <ele>402.92970000000003</ele>
        <time>2005-10-09T07:31:46Z</time>
      </trkpt>
      <trkpt lat="44.26342248916626" lon="11.374733448028564">
        <ele>405.33300000000003</ele>
        <time>2005-10-09T07:31:52Z</time>
      </trkpt>
      <trkpt lat="44.263379573822021" lon="11.374733448028564">
        <ele>406.7749</ele>
        <time>2005-10-09T07:31:56Z</time>
      </trkpt>
      <trkpt lat="44.263229370117187" lon="11.374690532684326">
        <ele>410.13959999999997</ele>
        <time>2005-10-09T07:32:06Z</time>
      </trkpt>
      <trkpt lat="44.263186454772949" lon="11.374690532684326">
        <ele>411.101</ele>
        <time>2005-10-09T07:32:09Z</time>
      </trkpt>
      <trkpt lat="44.26316499710083" lon="11.374669075012207">
        <ele>411.101</ele>
        <time>2005-10-09T07:32:11Z</time>
      </trkpt>
      <trkpt lat="44.263079166412354" lon="11.374518871307373">
        <ele>414.94619999999998</ele>
        <time>2005-10-09T07:32:20Z</time>
      </trkpt>
      <trkpt lat="44.263036251068115" lon="11.374239921569824">
        <ele>417.34960000000001</ele>
        <time>2005-10-09T07:32:36Z</time>
      </trkpt>
      <trkpt lat="44.262971878051758" lon="11.374111175537109">
        <ele>420.71409999999997</ele>
        <time>2005-10-09T07:32:46Z</time>
      </trkpt>
      <trkpt lat="44.262950420379639" lon="11.37408971786499">
        <ele>421.19479999999999</ele>
        <time>2005-10-09T07:32:48Z</time>
      </trkpt>
      <trkpt lat="44.26292896270752" lon="11.374046802520752">
        <ele>423.11739999999998</ele>
        <time>2005-10-09T07:33:08Z</time>
      </trkpt>
      <trkpt lat="44.2629075050354" lon="11.373982429504395">
        <ele>424.07870000000003</ele>
        <time>2005-10-09T07:33:19Z</time>
      </trkpt>
      <trkpt lat="44.262864589691162" lon="11.37385368347168">
        <ele>425.04020000000003</ele>
        <time>2005-10-09T07:33:29Z</time>
      </trkpt>
      <trkpt lat="44.262821674346924" lon="11.373767852783203">
        <ele>426.00130000000001</ele>
        <time>2005-10-09T07:33:44Z</time>
      </trkpt>
      <trkpt lat="44.262800216674805" lon="11.373724937438965">
        <ele>426.4821</ele>
        <time>2005-10-09T07:33:58Z</time>
      </trkpt>
      <trkpt lat="44.262778759002686" lon="11.373703479766846">
        <ele>426.4821</ele>
        <time>2005-10-09T07:34:20Z</time>
      </trkpt>
      <trkpt lat="44.26267147064209" lon="11.37359619140625">
        <ele>426.4821</ele>
        <time>2005-10-09T07:34:32Z</time>
      </trkpt>
      <trkpt lat="44.262650012969971" lon="11.373574733734131">
        <ele>428.8854</ele>
        <time>2005-10-09T07:34:38Z</time>
      </trkpt>
      <trkpt lat="44.262607097625732" lon="11.373531818389893">
        <ele>430.32729999999998</ele>
        <time>2005-10-09T07:34:43Z</time>
      </trkpt>
      <trkpt lat="44.262456893920898" lon="11.373488903045654">
        <ele>434.17259999999999</ele>
        <time>2005-10-09T07:34:59Z</time>
      </trkpt>
      <trkpt lat="44.262456893920898" lon="11.373488903045654">
        <ele>434.17259999999999</ele>
        <time>2005-10-09T07:35:00Z</time>
      </trkpt>
      <trkpt lat="44.262435436248779" lon="11.373467445373535">
        <ele>434.6533</ele>
        <time>2005-10-09T07:35:13Z</time>
      </trkpt>
      <trkpt lat="44.262435436248779" lon="11.373403072357178">
        <ele>435.61450000000002</ele>
        <time>2005-10-09T07:37:43Z</time>
      </trkpt>
      <trkpt lat="44.262371063232422" lon="11.373274326324463">
        <ele>436.57589999999999</ele>
        <time>2005-10-09T07:37:53Z</time>
      </trkpt>
      <trkpt lat="44.262328147888184" lon="11.373124122619629">
        <ele>438.49849999999998</ele>
        <time>2005-10-09T07:38:05Z</time>
      </trkpt>
      <trkpt lat="44.262242317199707" lon="11.37284517288208">
        <ele>442.8245</ele>
        <time>2005-10-09T07:38:25Z</time>
      </trkpt>
      <trkpt lat="44.262220859527588" lon="11.372652053833008">
        <ele>444.74709999999999</ele>
        <time>2005-10-09T07:38:40Z</time>
      </trkpt>
      <trkpt lat="44.262199401855469" lon="11.372544765472412">
        <ele>445.70839999999998</ele>
        <time>2005-10-09T07:38:46Z</time>
      </trkpt>
      <trkpt lat="44.262113571166992" lon="11.372265815734863">
        <ele>447.63099999999997</ele>
        <time>2005-10-09T07:39:04Z</time>
      </trkpt>
      <trkpt lat="44.262070655822754" lon="11.371965408325195">
        <ele>450.51499999999999</ele>
        <time>2005-10-09T07:39:23Z</time>
      </trkpt>
      <trkpt lat="44.262199401855469" lon="11.371707916259766">
        <ele>451.95699999999999</ele>
        <time>2005-10-09T07:39:39Z</time>
      </trkpt>
      <trkpt lat="44.262328147888184" lon="11.371450424194336">
        <ele>455.32150000000001</ele>
        <time>2005-10-09T07:39:57Z</time>
      </trkpt>
      <trkpt lat="44.262478351593018" lon="11.371214389801025">
        <ele>457.24430000000001</ele>
        <time>2005-10-09T07:40:14Z</time>
      </trkpt>
      <trkpt lat="44.262542724609375" lon="11.371064186096191">
        <ele>459.64760000000001</ele>
        <time>2005-10-09T07:40:22Z</time>
      </trkpt>
      <trkpt lat="44.262585639953613" lon="11.370978355407715">
        <ele>462.05079999999998</ele>
        <time>2005-10-09T07:40:35Z</time>
      </trkpt>
      <trkpt lat="44.26267147064209" lon="11.370828151702881">
        <ele>464.45409999999998</ele>
        <time>2005-10-09T07:40:45Z</time>
      </trkpt>
      <trkpt lat="44.262800216674805" lon="11.370613574981689">
        <ele>467.81869999999998</ele>
        <time>2005-10-09T07:41:02Z</time>
      </trkpt>
      <trkpt lat="44.262864589691162" lon="11.370463371276855">
        <ele>470.22190000000001</ele>
        <time>2005-10-09T07:41:13Z</time>
      </trkpt>
      <trkpt lat="44.262971878051758" lon="11.370441913604736">
        <ele>473.10610000000003</ele>
        <time>2005-10-09T07:41:30Z</time>
      </trkpt>
      <trkpt lat="44.262971878051758" lon="11.370463371276855">
        <ele>472.62540000000001</ele>
        <time>2005-10-09T07:41:33Z</time>
      </trkpt>
      <trkpt lat="44.262971878051758" lon="11.370763778686523">
        <ele>472.62540000000001</ele>
        <time>2005-10-09T07:41:55Z</time>
      </trkpt>
      <trkpt lat="44.262971878051758" lon="11.371042728424072">
        <ele>473.58670000000001</ele>
        <time>2005-10-09T07:42:15Z</time>
      </trkpt>
      <trkpt lat="44.262950420379639" lon="11.371321678161621">
        <ele>475.5093</ele>
        <time>2005-10-09T07:42:32Z</time>
      </trkpt>
      <trkpt lat="44.262950420379639" lon="11.371622085571289">
        <ele>476.47059999999999</ele>
        <time>2005-10-09T07:42:49Z</time>
      </trkpt>
      <trkpt lat="44.262993335723877" lon="11.371922492980957">
        <ele>479.35449999999997</ele>
        <time>2005-10-09T07:43:09Z</time>
      </trkpt>
      <trkpt lat="44.263186454772949" lon="11.372158527374268">
        <ele>482.7192</ele>
        <time>2005-10-09T07:43:31Z</time>
      </trkpt>
      <trkpt lat="44.263358116149902" lon="11.372287273406982">
        <ele>484.64179999999999</ele>
        <time>2005-10-09T07:43:48Z</time>
      </trkpt>
      <trkpt lat="44.263443946838379" lon="11.372330188751221">
        <ele>486.08370000000002</ele>
        <time>2005-10-09T07:43:57Z</time>
      </trkpt>
      <trkpt lat="44.263465404510498" lon="11.37235164642334">
        <ele>486.08370000000002</ele>
        <time>2005-10-09T07:43:58Z</time>
      </trkpt>
      <trkpt lat="44.26365852355957" lon="11.37258768081665">
        <ele>489.44839999999999</ele>
        <time>2005-10-09T07:44:23Z</time>
      </trkpt>
      <trkpt lat="44.263958930969238" lon="11.372759342193604">
        <ele>492.81299999999999</ele>
        <time>2005-10-09T07:44:54Z</time>
      </trkpt>
      <trkpt lat="44.264194965362549" lon="11.372630596160889">
        <ele>494.73559999999998</ele>
        <time>2005-10-09T07:45:14Z</time>
      </trkpt>
      <trkpt lat="44.264345169067383" lon="11.37258768081665">
        <ele>497.61959999999999</ele>
        <time>2005-10-09T07:45:28Z</time>
      </trkpt>
      <trkpt lat="44.264495372772217" lon="11.37258768081665">
        <ele>500.02289999999999</ele>
        <time>2005-10-09T07:45:41Z</time>
      </trkpt>
      <trkpt lat="44.26466703414917" lon="11.372437477111816">
        <ele>500.98410000000001</ele>
        <time>2005-10-09T07:46:00Z</time>
      </trkpt>
      <trkpt lat="44.264860153198242" lon="11.372416019439697">
        <ele>503.8682</ele>
        <time>2005-10-09T07:46:18Z</time>
      </trkpt>
      <trkpt lat="44.264838695526123" lon="11.372287273406982">
        <ele>504.34890000000001</ele>
        <time>2005-10-09T07:46:25Z</time>
      </trkpt>
      <trkpt lat="44.26466703414917" lon="11.372244358062744">
        <ele>505.31020000000001</ele>
        <time>2005-10-09T07:46:41Z</time>
      </trkpt>
      <trkpt lat="44.264624118804932" lon="11.372265815734863">
        <ele>506.75209999999998</ele>
        <time>2005-10-09T07:46:46Z</time>
      </trkpt>
      <trkpt lat="44.264473915100098" lon="11.372330188751221">
        <ele>508.19409999999999</ele>
        <time>2005-10-09T07:46:59Z</time>
      </trkpt>
      <trkpt lat="44.264495372772217" lon="11.372201442718506">
        <ele>509.6361</ele>
        <time>2005-10-09T07:47:07Z</time>
      </trkpt>
      <trkpt lat="44.26466703414917" lon="11.372029781341553">
        <ele>512.0394</ele>
        <time>2005-10-09T07:47:24Z</time>
      </trkpt>
      <trkpt lat="44.264945983886719" lon="11.371965408325195">
        <ele>514.44259999999997</ele>
        <time>2005-10-09T07:47:48Z</time>
      </trkpt>
      <trkpt lat="44.26516056060791" lon="11.372051239013672">
        <ele>517.80730000000005</ele>
        <time>2005-10-09T07:48:06Z</time>
      </trkpt>
      <trkpt lat="44.265289306640625" lon="11.372265815734863">
        <ele>520.69129999999996</ele>
        <time>2005-10-09T07:48:23Z</time>
      </trkpt>
      <trkpt lat="44.265396595001221" lon="11.372652053833008">
        <ele>524.05579999999998</ele>
        <time>2005-10-09T07:48:49Z</time>
      </trkpt>
      <trkpt lat="44.265460968017578" lon="11.372652053833008">
        <ele>524.05579999999998</ele>
        <time>2005-10-09T07:48:57Z</time>
      </trkpt>
      <trkpt lat="44.265503883361816" lon="11.372394561767578">
        <ele>525.97839999999997</ele>
        <time>2005-10-09T07:49:19Z</time>
      </trkpt>
      <trkpt lat="44.265375137329102" lon="11.371815204620361">
        <ele>527.90099999999995</ele>
        <time>2005-10-09T07:49:55Z</time>
      </trkpt>
      <trkpt lat="44.265353679656982" lon="11.371321678161621">
        <ele>529.34310000000005</ele>
        <time>2005-10-09T07:50:24Z</time>
      </trkpt>
      <trkpt lat="44.265589714050293" lon="11.371064186096191">
        <ele>532.22709999999995</ele>
        <time>2005-10-09T07:50:47Z</time>
      </trkpt>
      <trkpt lat="44.265761375427246" lon="11.370828151702881">
        <ele>533.66890000000001</ele>
        <time>2005-10-09T07:51:06Z</time>
      </trkpt>
      <trkpt lat="44.266061782836914" lon="11.370699405670166">
        <ele>534.63040000000001</ele>
        <time>2005-10-09T07:51:30Z</time>
      </trkpt>
      <trkpt lat="44.266362190246582" lon="11.370484828948975">
        <ele>535.11099999999999</ele>
        <time>2005-10-09T07:51:54Z</time>
      </trkpt>
      <trkpt lat="44.266555309295654" lon="11.370398998260498">
        <ele>537.51430000000005</ele>
        <time>2005-10-09T07:52:08Z</time>
      </trkpt>
      <trkpt lat="44.266834259033203" lon="11.370205879211426">
        <ele>538.95630000000006</ele>
        <time>2005-10-09T07:52:29Z</time>
      </trkpt>
      <trkpt lat="44.267027378082275" lon="11.37009859085083">
        <ele>540.87890000000004</ele>
        <time>2005-10-09T07:52:43Z</time>
      </trkpt>
      <trkpt lat="44.267306327819824" lon="11.370012760162354">
        <ele>541.35950000000003</ele>
        <time>2005-10-09T07:53:03Z</time>
      </trkpt>
      <trkpt lat="44.267392158508301" lon="11.369905471801758">
        <ele>541.35950000000003</ele>
        <time>2005-10-09T07:58:01Z</time>
      </trkpt>
      <trkpt lat="44.267585277557373" lon="11.369690895080566">
        <ele>543.76279999999997</ele>
        <time>2005-10-09T07:58:22Z</time>
      </trkpt>
      <trkpt lat="44.267842769622803" lon="11.369433403015137">
        <ele>546.16629999999998</ele>
        <time>2005-10-09T07:58:43Z</time>
      </trkpt>
      <trkpt lat="44.268121719360352" lon="11.369411945343018">
        <ele>549.04999999999995</ele>
        <time>2005-10-09T07:59:04Z</time>
      </trkpt>
      <trkpt lat="44.26816463470459" lon="11.369411945343018">
        <ele>549.04999999999995</ele>
        <time>2005-10-09T07:59:07Z</time>
      </trkpt>
      <trkpt lat="44.268186092376709" lon="11.369369029998779">
        <ele>550.49220000000003</ele>
        <time>2005-10-09T07:59:10Z</time>
      </trkpt>
      <trkpt lat="44.268379211425781" lon="11.369154453277588">
        <ele>553.85670000000005</ele>
        <time>2005-10-09T07:59:28Z</time>
      </trkpt>
      <trkpt lat="44.268465042114258" lon="11.36909008026123">
        <ele>554.81790000000001</ele>
        <time>2005-10-09T07:59:35Z</time>
      </trkpt>
      <trkpt lat="44.268529415130615" lon="11.369068622589111">
        <ele>555.77930000000003</ele>
        <time>2005-10-09T07:59:45Z</time>
      </trkpt>
      <trkpt lat="44.268593788146973" lon="11.36911153793335">
        <ele>558.18290000000002</ele>
        <time>2005-10-09T07:59:54Z</time>
      </trkpt>
      <trkpt lat="44.268829822540283" lon="11.36934757232666">
        <ele>559.62480000000005</ele>
        <time>2005-10-09T08:00:12Z</time>
      </trkpt>
      <trkpt lat="44.269022941589355" lon="11.369519233703613">
        <ele>561.06669999999997</ele>
        <time>2005-10-09T08:00:29Z</time>
      </trkpt>
      <trkpt lat="44.269022941589355" lon="11.369519233703613">
        <ele>561.06669999999997</ele>
        <time>2005-10-09T08:00:30Z</time>
      </trkpt>
      <trkpt lat="44.269258975982666" lon="11.369712352752686">
        <ele>562.50850000000003</ele>
        <time>2005-10-09T08:00:49Z</time>
      </trkpt>
      <trkpt lat="44.269387722015381" lon="11.369776725769043">
        <ele>563.47000000000003</ele>
        <time>2005-10-09T08:01:04Z</time>
      </trkpt>
      <trkpt lat="44.269452095031738" lon="11.369819641113281">
        <ele>565.87329999999997</ele>
        <time>2005-10-09T08:01:17Z</time>
      </trkpt>
      <trkpt lat="44.269623756408691" lon="11.369776725769043">
        <ele>566.35379999999998</ele>
        <time>2005-10-09T08:01:35Z</time>
      </trkpt>
      <trkpt lat="44.269752502441406" lon="11.369798183441162">
        <ele>568.75710000000004</ele>
        <time>2005-10-09T08:01:51Z</time>
      </trkpt>
      <trkpt lat="44.269816875457764" lon="11.369776725769043">
        <ele>571.16039999999998</ele>
        <time>2005-10-09T08:02:04Z</time>
      </trkpt>
      <trkpt lat="44.269816875457764" lon="11.369755268096924">
        <ele>572.12180000000001</ele>
        <time>2005-10-09T08:02:23Z</time>
      </trkpt>
      <trkpt lat="44.269988536834717" lon="11.369733810424805">
        <ele>575.0059</ele>
        <time>2005-10-09T08:02:34Z</time>
      </trkpt>
      <trkpt lat="44.270052909851074" lon="11.369712352752686">
        <ele>578.37040000000002</ele>
        <time>2005-10-09T08:02:39Z</time>
      </trkpt>
      <trkpt lat="44.270095825195312" lon="11.369733810424805">
        <ele>578.37040000000002</ele>
        <time>2005-10-09T08:02:49Z</time>
      </trkpt>
      <trkpt lat="44.270117282867432" lon="11.369733810424805">
        <ele>578.37040000000002</ele>
        <time>2005-10-09T08:03:30Z</time>
      </trkpt>
      <trkpt lat="44.270117282867432" lon="11.369733810424805">
        <ele>578.37040000000002</ele>
        <time>2005-10-09T08:04:04Z</time>
      </trkpt>
      <trkpt lat="44.270117282867432" lon="11.369733810424805">
        <ele>578.85109999999997</ele>
        <time>2005-10-09T08:04:48Z</time>
      </trkpt>
      <trkpt lat="44.27016019821167" lon="11.369755268096924">
        <ele>574.52509999999995</ele>
        <time>2005-10-09T08:04:52Z</time>
      </trkpt>
      <trkpt lat="44.270181655883789" lon="11.369776725769043">
        <ele>574.0444</ele>
        <time>2005-10-09T08:04:53Z</time>
      </trkpt>
      <trkpt lat="44.270246028900146" lon="11.369798183441162">
        <ele>572.12180000000001</ele>
        <time>2005-10-09T08:04:57Z</time>
      </trkpt>
      <trkpt lat="44.270546436309814" lon="11.370291709899902">
        <ele>572.60249999999996</ele>
        <time>2005-10-09T08:05:14Z</time>
      </trkpt>
      <trkpt lat="44.270868301391602" lon="11.370677947998047">
        <ele>571.64089999999999</ele>
        <time>2005-10-09T08:05:28Z</time>
      </trkpt>
      <trkpt lat="44.27116870880127" lon="11.370913982391357">
        <ele>571.16039999999998</ele>
        <time>2005-10-09T08:05:45Z</time>
      </trkpt>
      <trkpt lat="44.27140474319458" lon="11.371235847473145">
        <ele>571.16039999999998</ele>
        <time>2005-10-09T08:06:03Z</time>
      </trkpt>
      <trkpt lat="44.271533489227295" lon="11.371471881866455">
        <ele>570.67970000000003</ele>
        <time>2005-10-09T08:06:13Z</time>
      </trkpt>
      <trkpt lat="44.271576404571533" lon="11.371665000915527">
        <ele>572.12180000000001</ele>
        <time>2005-10-09T08:06:24Z</time>
      </trkpt>
      <trkpt lat="44.271683692932129" lon="11.371986865997314">
        <ele>572.12180000000001</ele>
        <time>2005-10-09T08:06:42Z</time>
      </trkpt>
      <trkpt lat="44.271683692932129" lon="11.372179985046387">
        <ele>571.16039999999998</ele>
        <time>2005-10-09T08:06:54Z</time>
      </trkpt>
      <trkpt lat="44.271748065948486" lon="11.372501850128174">
        <ele>569.23779999999999</ele>
        <time>2005-10-09T08:07:11Z</time>
      </trkpt>
      <trkpt lat="44.271769523620605" lon="11.372523307800293">
        <ele>569.23779999999999</ele>
        <time>2005-10-09T08:07:12Z</time>
      </trkpt>
      <trkpt lat="44.271748065948486" lon="11.372802257537842">
        <ele>565.87329999999997</ele>
        <time>2005-10-09T08:07:20Z</time>
      </trkpt>
      <trkpt lat="44.271683692932129" lon="11.373360157012939">
        <ele>562.50850000000003</ele>
        <time>2005-10-09T08:07:34Z</time>
      </trkpt>
      <trkpt lat="44.271683692932129" lon="11.373982429504395">
        <ele>563.47000000000003</ele>
        <time>2005-10-09T08:07:53Z</time>
      </trkpt>
      <trkpt lat="44.271705150604248" lon="11.374411582946777">
        <ele>565.39260000000002</ele>
        <time>2005-10-09T08:08:06Z</time>
      </trkpt>
      <trkpt lat="44.271597862243652" lon="11.374669075012207">
        <ele>568.27639999999997</ele>
        <time>2005-10-09T08:08:14Z</time>
      </trkpt>
      <trkpt lat="44.271576404571533" lon="11.374711990356445">
        <ele>568.27639999999997</ele>
        <time>2005-10-09T08:08:16Z</time>
      </trkpt>
      <trkpt lat="44.271554946899414" lon="11.37509822845459">
        <ele>568.27639999999997</ele>
        <time>2005-10-09T08:08:34Z</time>
      </trkpt>
      <trkpt lat="44.271576404571533" lon="11.375269889831543">
        <ele>566.83450000000005</ele>
        <time>2005-10-09T08:08:40Z</time>
      </trkpt>
      <trkpt lat="44.271597862243652" lon="11.375312805175781">
        <ele>565.39260000000002</ele>
        <time>2005-10-09T08:08:43Z</time>
      </trkpt>
      <trkpt lat="44.271597862243652" lon="11.375377178192139">
        <ele>563.95039999999995</ele>
        <time>2005-10-09T08:08:46Z</time>
      </trkpt>
      <trkpt lat="44.27166223526001" lon="11.375548839569092">
        <ele>560.10519999999997</ele>
        <time>2005-10-09T08:08:53Z</time>
      </trkpt>
      <trkpt lat="44.27166223526001" lon="11.375548839569092">
        <ele>560.10519999999997</ele>
        <time>2005-10-09T08:08:54Z</time>
      </trkpt>
      <trkpt lat="44.271683692932129" lon="11.37559175491333">
        <ele>558.18290000000002</ele>
        <time>2005-10-09T08:08:57Z</time>
      </trkpt>
      <trkpt lat="44.271726608276367" lon="11.375699043273926">
        <ele>554.81790000000001</ele>
        <time>2005-10-09T08:09:02Z</time>
      </trkpt>
      <trkpt lat="44.271748065948486" lon="11.375741958618164">
        <ele>553.85670000000005</ele>
        <time>2005-10-09T08:09:04Z</time>
      </trkpt>
      <trkpt lat="44.271748065948486" lon="11.375806331634521">
        <ele>551.93409999999994</ele>
        <time>2005-10-09T08:09:07Z</time>
      </trkpt>
      <trkpt lat="44.271726608276367" lon="11.375999450683594">
        <ele>548.5693</ele>
        <time>2005-10-09T08:09:14Z</time>
      </trkpt>
      <trkpt lat="44.271726608276367" lon="11.376020908355713">
        <ele>548.5693</ele>
        <time>2005-10-09T08:09:15Z</time>
      </trkpt>
      <trkpt lat="44.271705150604248" lon="11.376128196716309">
        <ele>546.64689999999996</ele>
        <time>2005-10-09T08:09:20Z</time>
      </trkpt>
      <trkpt lat="44.271705150604248" lon="11.376171112060547">
        <ele>545.20479999999998</ele>
        <time>2005-10-09T08:09:22Z</time>
      </trkpt>
      <trkpt lat="44.271597862243652" lon="11.376814842224121">
        <ele>544.24369999999999</ele>
        <time>2005-10-09T08:09:39Z</time>
      </trkpt>
      <trkpt lat="44.271597862243652" lon="11.3773512840271">
        <ele>547.12739999999997</ele>
        <time>2005-10-09T08:09:51Z</time>
      </trkpt>
      <trkpt lat="44.271576404571533" lon="11.377522945404053">
        <ele>546.64689999999996</ele>
        <time>2005-10-09T08:10:02Z</time>
      </trkpt>
      <trkpt lat="44.271554946899414" lon="11.377651691436768">
        <ele>546.16629999999998</ele>
        <time>2005-10-09T08:11:43Z</time>
      </trkpt>
      <trkpt lat="44.271554946899414" lon="11.377694606781006">
        <ele>547.60820000000001</ele>
        <time>2005-10-09T08:14:33Z</time>
      </trkpt>
      <trkpt lat="44.271533489227295" lon="11.377694606781006">
        <ele>548.08889999999997</ele>
        <time>2005-10-09T08:15:22Z</time>
      </trkpt>
      <trkpt lat="44.271597862243652" lon="11.377780437469482">
        <ele>548.08889999999997</ele>
        <time>2005-10-09T08:15:26Z</time>
      </trkpt>
      <trkpt lat="44.271790981292725" lon="11.37784481048584">
        <ele>543.28210000000001</ele>
        <time>2005-10-09T08:15:30Z</time>
      </trkpt>
      <trkpt lat="44.271962642669678" lon="11.377887725830078">
        <ele>540.39829999999995</ele>
        <time>2005-10-09T08:15:33Z</time>
      </trkpt>
      <trkpt lat="44.272005558013916" lon="11.377909183502197">
        <ele>537.03369999999995</ele>
        <time>2005-10-09T08:15:34Z</time>
      </trkpt>
      <trkpt lat="44.272241592407227" lon="11.377973556518555">
        <ele>534.63040000000001</ele>
        <time>2005-10-09T08:15:38Z</time>
      </trkpt>
      <trkpt lat="44.27241325378418" lon="11.377673149108887">
        <ele>533.1884</ele>
        <time>2005-10-09T08:15:42Z</time>
      </trkpt>
      <trkpt lat="44.272541999816895" lon="11.377544403076172">
        <ele>531.74630000000002</ele>
        <time>2005-10-09T08:15:45Z</time>
      </trkpt>
      <trkpt lat="44.272627830505371" lon="11.377522945404053">
        <ele>531.74630000000002</ele>
        <time>2005-10-09T08:15:47Z</time>
      </trkpt>
      <trkpt lat="44.272692203521729" lon="11.37758731842041">
        <ele>531.74630000000002</ele>
        <time>2005-10-09T08:15:49Z</time>
      </trkpt>
      <trkpt lat="44.272820949554443" lon="11.377608776092529">
        <ele>526.45910000000003</ele>
        <time>2005-10-09T08:15:52Z</time>
      </trkpt>
      <trkpt lat="44.273035526275635" lon="11.377673149108887">
        <ele>521.17200000000003</ele>
        <time>2005-10-09T08:15:56Z</time>
      </trkpt>
      <trkpt lat="44.27316427230835" lon="11.377823352813721">
        <ele>519.24929999999995</ele>
        <time>2005-10-09T08:15:59Z</time>
      </trkpt>
      <trkpt lat="44.273271560668945" lon="11.377909183502197">
        <ele>517.32669999999996</ele>
        <time>2005-10-09T08:16:01Z</time>
      </trkpt>
      <trkpt lat="44.273443222045898" lon="11.378037929534912">
        <ele>515.40409999999997</ele>
        <time>2005-10-09T08:16:04Z</time>
      </trkpt>
      <trkpt lat="44.273550510406494" lon="11.37808084487915">
        <ele>513.96199999999999</ele>
        <time>2005-10-09T08:16:06Z</time>
      </trkpt>
      <trkpt lat="44.273829460144043" lon="11.378037929534912">
        <ele>512.51999999999998</ele>
        <time>2005-10-09T08:16:10Z</time>
      </trkpt>
      <trkpt lat="44.27391529083252" lon="11.377780437469482">
        <ele>508.67469999999997</ele>
        <time>2005-10-09T08:16:15Z</time>
      </trkpt>
      <trkpt lat="44.273958206176758" lon="11.377630233764648">
        <ele>505.31020000000001</ele>
        <time>2005-10-09T08:16:17Z</time>
      </trkpt>
      <trkpt lat="44.274129867553711" lon="11.376986503601074">
        <ele>501.46480000000003</ele>
        <time>2005-10-09T08:16:24Z</time>
      </trkpt>
      <trkpt lat="44.27440881729126" lon="11.376686096191406">
        <ele>496.17770000000002</ele>
        <time>2005-10-09T08:16:28Z</time>
      </trkpt>
      <trkpt lat="44.274516105651855" lon="11.376664638519287">
        <ele>494.73559999999998</ele>
        <time>2005-10-09T08:16:29Z</time>
      </trkpt>
      <trkpt lat="44.274837970733643" lon="11.3763427734375">
        <ele>490.8904</ele>
        <time>2005-10-09T08:16:33Z</time>
      </trkpt>
      <trkpt lat="44.275224208831787" lon="11.376063823699951">
        <ele>487.04500000000002</ele>
        <time>2005-10-09T08:16:38Z</time>
      </trkpt>
      <trkpt lat="44.275374412536621" lon="11.375806331634521">
        <ele>486.08370000000002</ele>
        <time>2005-10-09T08:16:47Z</time>
      </trkpt>
      <trkpt lat="44.27539587020874" lon="11.375634670257568">
        <ele>486.56450000000001</ele>
        <time>2005-10-09T08:16:59Z</time>
      </trkpt>
      <trkpt lat="44.275674819946289" lon="11.375720500946045">
        <ele>484.16109999999998</ele>
        <time>2005-10-09T08:17:08Z</time>
      </trkpt>
      <trkpt lat="44.275846481323242" lon="11.375699043273926">
        <ele>483.68040000000002</ele>
        <time>2005-10-09T08:17:13Z</time>
      </trkpt>
      <trkpt lat="44.275996685028076" lon="11.375784873962402">
        <ele>482.23849999999999</ele>
        <time>2005-10-09T08:17:17Z</time>
      </trkpt>
      <trkpt lat="44.27614688873291" lon="11.375977993011475">
        <ele>480.79660000000001</ele>
        <time>2005-10-09T08:17:23Z</time>
      </trkpt>
      <trkpt lat="44.276275634765625" lon="11.375935077667236">
        <ele>481.27719999999999</ele>
        <time>2005-10-09T08:17:28Z</time>
      </trkpt>
      <trkpt lat="44.276554584503174" lon="11.37584924697876">
        <ele>480.79660000000001</ele>
        <time>2005-10-09T08:17:36Z</time>
      </trkpt>
      <trkpt lat="44.276747703552246" lon="11.375720500946045">
        <ele>476.47059999999999</ele>
        <time>2005-10-09T08:17:40Z</time>
      </trkpt>
      <trkpt lat="44.276833534240723" lon="11.375677585601807">
        <ele>475.02870000000001</ele>
        <time>2005-10-09T08:17:42Z</time>
      </trkpt>
      <trkpt lat="44.276983737945557" lon="11.375634670257568">
        <ele>471.66390000000001</ele>
        <time>2005-10-09T08:17:46Z</time>
      </trkpt>
      <trkpt lat="44.277133941650391" lon="11.375634670257568">
        <ele>468.29930000000002</ele>
        <time>2005-10-09T08:17:50Z</time>
      </trkpt>
      <trkpt lat="44.277284145355225" lon="11.375613212585449">
        <ele>463.97340000000003</ele>
        <time>2005-10-09T08:17:54Z</time>
      </trkpt>
      <trkpt lat="44.277412891387939" lon="11.375613212585449">
        <ele>460.60879999999997</ele>
        <time>2005-10-09T08:17:58Z</time>
      </trkpt>
      <trkpt lat="44.277520179748535" lon="11.375548839569092">
        <ele>456.76350000000002</ele>
        <time>2005-10-09T08:18:02Z</time>
      </trkpt>
      <trkpt lat="44.277541637420654" lon="11.375548839569092">
        <ele>455.32150000000001</ele>
        <time>2005-10-09T08:18:03Z</time>
      </trkpt>
      <trkpt lat="44.277691841125488" lon="11.375484466552734">
        <ele>450.51499999999999</ele>
        <time>2005-10-09T08:18:08Z</time>
      </trkpt>
      <trkpt lat="44.277713298797607" lon="11.375463008880615">
        <ele>450.03440000000001</ele>
        <time>2005-10-09T08:18:09Z</time>
      </trkpt>
      <trkpt lat="44.277777671813965" lon="11.375398635864258">
        <ele>448.5924</ele>
        <time>2005-10-09T08:18:11Z</time>
      </trkpt>
      <trkpt lat="44.27790641784668" lon="11.375463008880615">
        <ele>444.26650000000001</ele>
        <time>2005-10-09T08:18:16Z</time>
      </trkpt>
      <trkpt lat="44.277927875518799" lon="11.375613212585449">
        <ele>441.38240000000002</ele>
        <time>2005-10-09T08:26:58Z</time>
      </trkpt>
      <trkpt lat="44.278056621551514" lon="11.375935077667236">
        <ele>440.42129999999997</ele>
        <time>2005-10-09T08:27:12Z</time>
      </trkpt>
      <trkpt lat="44.278099536895752" lon="11.376042366027832">
        <ele>437.05650000000003</ele>
        <time>2005-10-09T08:27:15Z</time>
      </trkpt>
      <trkpt lat="44.27814245223999" lon="11.376171112060547">
        <ele>435.61450000000002</ele>
        <time>2005-10-09T08:27:18Z</time>
      </trkpt>
      <trkpt lat="44.278206825256348" lon="11.376428604125977">
        <ele>432.73070000000001</ele>
        <time>2005-10-09T08:27:27Z</time>
      </trkpt>
      <trkpt lat="44.278271198272705" lon="11.376471519470215">
        <ele>431.28859999999997</ele>
        <time>2005-10-09T08:27:30Z</time>
      </trkpt>
      <trkpt lat="44.278314113616943" lon="11.376557350158691">
        <ele>431.28859999999997</ele>
        <time>2005-10-09T08:27:33Z</time>
      </trkpt>
      <trkpt lat="44.278335571289063" lon="11.376621723175049">
        <ele>429.84660000000002</ele>
        <time>2005-10-09T08:27:35Z</time>
      </trkpt>
      <trkpt lat="44.278357028961182" lon="11.376707553863525">
        <ele>427.92399999999998</ele>
        <time>2005-10-09T08:27:38Z</time>
      </trkpt>
      <trkpt lat="44.27839994430542" lon="11.376771926879883">
        <ele>426.4821</ele>
        <time>2005-10-09T08:27:43Z</time>
      </trkpt>
      <trkpt lat="44.278421401977539" lon="11.376793384552002">
        <ele>426.4821</ele>
        <time>2005-10-09T08:28:07Z</time>
      </trkpt>
      <trkpt lat="44.278442859649658" lon="11.376793384552002">
        <ele>426.4821</ele>
        <time>2005-10-09T08:28:25Z</time>
      </trkpt>
      <trkpt lat="44.278507232666016" lon="11.376407146453857">
        <ele>425.52080000000001</ele>
        <time>2005-10-09T08:28:39Z</time>
      </trkpt>
      <trkpt lat="44.278593063354492" lon="11.376192569732666">
        <ele>425.52080000000001</ele>
        <time>2005-10-09T08:28:42Z</time>
      </trkpt>
      <trkpt lat="44.278829097747803" lon="11.37584924697876">
        <ele>423.59800000000001</ele>
        <time>2005-10-09T08:28:46Z</time>
      </trkpt>
      <trkpt lat="44.279108047485352" lon="11.375570297241211">
        <ele>422.63670000000002</ele>
        <time>2005-10-09T08:28:50Z</time>
      </trkpt>
      <trkpt lat="44.279344081878662" lon="11.3753342628479">
        <ele>421.67540000000002</ele>
        <time>2005-10-09T08:28:55Z</time>
      </trkpt>
      <trkpt lat="44.279687404632568" lon="11.375248432159424">
        <ele>423.11739999999998</ele>
        <time>2005-10-09T08:29:06Z</time>
      </trkpt>
      <trkpt lat="44.280052185058594" lon="11.374990940093994">
        <ele>421.67540000000002</ele>
        <time>2005-10-09T08:29:18Z</time>
      </trkpt>
      <trkpt lat="44.280416965484619" lon="11.374754905700684">
        <ele>417.83019999999999</ele>
        <time>2005-10-09T08:29:30Z</time>
      </trkpt>
      <trkpt lat="44.280438423156738" lon="11.374733448028564">
        <ele>418.31079999999997</ele>
        <time>2005-10-09T08:29:44Z</time>
      </trkpt>
      <trkpt lat="44.280438423156738" lon="11.374711990356445">
        <ele>417.83019999999999</ele>
        <time>2005-10-09T08:30:11Z</time>
      </trkpt>
      <trkpt lat="44.280502796173096" lon="11.374626159667969">
        <ele>417.83019999999999</ele>
        <time>2005-10-09T08:30:55Z</time>
      </trkpt>
      <trkpt lat="44.280910491943359" lon="11.374325752258301">
        <ele>418.79149999999998</ele>
        <time>2005-10-09T08:31:11Z</time>
      </trkpt>
      <trkpt lat="44.281511306762695" lon="11.37408971786499">
        <ele>420.23340000000002</ele>
        <time>2005-10-09T08:31:31Z</time>
      </trkpt>
      <trkpt lat="44.281919002532959" lon="11.374003887176514">
        <ele>421.19479999999999</ele>
        <time>2005-10-09T08:31:46Z</time>
      </trkpt>
      <trkpt lat="44.282584190368652" lon="11.374068260192871">
        <ele>420.23340000000002</ele>
        <time>2005-10-09T08:32:03Z</time>
      </trkpt>
      <trkpt lat="44.282970428466797" lon="11.37408971786499">
        <ele>418.79149999999998</ele>
        <time>2005-10-09T08:32:11Z</time>
      </trkpt>
      <trkpt lat="44.283742904663086" lon="11.374175548553467">
        <ele>416.38819999999998</ele>
        <time>2005-10-09T08:32:27Z</time>
      </trkpt>
      <trkpt lat="44.284579753875732" lon="11.374239921569824">
        <ele>415.42689999999999</ele>
        <time>2005-10-09T08:32:47Z</time>
      </trkpt>
      <trkpt lat="44.285180568695068" lon="11.374304294586182">
        <ele>414.46550000000002</ele>
        <time>2005-10-09T08:33:01Z</time>
      </trkpt>
      <trkpt lat="44.285459518432617" lon="11.374411582946777">
        <ele>414.46550000000002</ele>
        <time>2005-10-09T08:33:07Z</time>
      </trkpt>
      <trkpt lat="44.285717010498047" lon="11.374905109405518">
        <ele>413.5043</ele>
        <time>2005-10-09T08:33:16Z</time>
      </trkpt>
      <trkpt lat="44.285759925842285" lon="11.375484466552734">
        <ele>412.5428</ele>
        <time>2005-10-09T08:33:25Z</time>
      </trkpt>
      <trkpt lat="44.285867214202881" lon="11.375741958618164">
        <ele>412.06229999999999</ele>
        <time>2005-10-09T08:33:30Z</time>
      </trkpt>
      <trkpt lat="44.286231994628906" lon="11.375935077667236">
        <ele>411.101</ele>
        <time>2005-10-09T08:33:39Z</time>
      </trkpt>
      <trkpt lat="44.287047386169434" lon="11.375699043273926">
        <ele>409.65910000000002</ele>
        <time>2005-10-09T08:33:57Z</time>
      </trkpt>
      <trkpt lat="44.28764820098877" lon="11.375613212585449">
        <ele>408.21699999999998</ele>
        <time>2005-10-09T08:34:14Z</time>
      </trkpt>
      <trkpt lat="44.287712574005127" lon="11.375699043273926">
        <ele>409.17829999999998</ele>
        <time>2005-10-09T08:34:19Z</time>
      </trkpt>
      <trkpt lat="44.287927150726318" lon="11.375720500946045">
        <ele>410.13959999999997</ele>
        <time>2005-10-09T08:34:32Z</time>
      </trkpt>
      <trkpt lat="44.288012981414795" lon="11.375784873962402">
        <ele>410.62020000000001</ele>
        <time>2005-10-09T08:34:52Z</time>
      </trkpt>
      <trkpt lat="44.288334846496582" lon="11.376042366027832">
        <ele>414.46550000000002</ele>
        <time>2005-10-09T08:35:09Z</time>
      </trkpt>
      <trkpt lat="44.288570880889893" lon="11.376364231109619">
        <ele>416.8689</ele>
        <time>2005-10-09T08:35:24Z</time>
      </trkpt>
      <trkpt lat="44.288828372955322" lon="11.376621723175049">
        <ele>420.23340000000002</ele>
        <time>2005-10-09T08:35:40Z</time>
      </trkpt>
      <trkpt lat="44.288914203643799" lon="11.376771926879883">
        <ele>420.71409999999997</ele>
        <time>2005-10-09T08:35:47Z</time>
      </trkpt>
      <trkpt lat="44.288763999938965" lon="11.376729011535645">
        <ele>422.15600000000001</ele>
        <time>2005-10-09T08:35:56Z</time>
      </trkpt>
      <trkpt lat="44.288442134857178" lon="11.376492977142334">
        <ele>425.04020000000003</ele>
        <time>2005-10-09T08:36:18Z</time>
      </trkpt>
      <trkpt lat="44.288163185119629" lon="11.376471519470215">
        <ele>427.92399999999998</ele>
        <time>2005-10-09T08:36:36Z</time>
      </trkpt>
      <trkpt lat="44.287905693054199" lon="11.376471519470215">
        <ele>431.28859999999997</ele>
        <time>2005-10-09T08:36:52Z</time>
      </trkpt>
      <trkpt lat="44.287519454956055" lon="11.37660026550293">
        <ele>434.17259999999999</ele>
        <time>2005-10-09T08:37:09Z</time>
      </trkpt>
      <trkpt lat="44.287476539611816" lon="11.376621723175049">
        <ele>435.13389999999998</ele>
        <time>2005-10-09T08:37:11Z</time>
      </trkpt>
      <trkpt lat="44.28713321685791" lon="11.376922130584717">
        <ele>438.01780000000002</ele>
        <time>2005-10-09T08:37:29Z</time>
      </trkpt>
      <trkpt lat="44.286746978759766" lon="11.377029418945313">
        <ele>440.42129999999997</ele>
        <time>2005-10-09T08:37:47Z</time>
      </trkpt>
      <trkpt lat="44.286618232727051" lon="11.377415657043457">
        <ele>443.78579999999999</ele>
        <time>2005-10-09T08:38:00Z</time>
      </trkpt>
      <trkpt lat="44.286832809448242" lon="11.377694606781006">
        <ele>447.15030000000002</ele>
        <time>2005-10-09T08:38:15Z</time>
      </trkpt>
      <trkpt lat="44.28713321685791" lon="11.377458572387695">
        <ele>449.55369999999999</ele>
        <time>2005-10-09T08:38:31Z</time>
      </trkpt>
      <trkpt lat="44.287433624267578" lon="11.377201080322266">
        <ele>452.91820000000001</ele>
        <time>2005-10-09T08:38:47Z</time>
      </trkpt>
      <trkpt lat="44.28762674331665" lon="11.377565860748291">
        <ele>455.80220000000003</ele>
        <time>2005-10-09T08:39:01Z</time>
      </trkpt>
      <trkpt lat="44.287776947021484" lon="11.377973556518555">
        <ele>459.1669</ele>
        <time>2005-10-09T08:39:16Z</time>
      </trkpt>
      <trkpt lat="44.288120269775391" lon="11.378359794616699">
        <ele>463.01209999999998</ele>
        <time>2005-10-09T08:39:35Z</time>
      </trkpt>
      <trkpt lat="44.288270473480225" lon="11.378960609436035">
        <ele>466.85739999999998</ele>
        <time>2005-10-09T08:39:53Z</time>
      </trkpt>
      <trkpt lat="44.288356304168701" lon="11.379733085632324">
        <ele>467.81869999999998</ele>
        <time>2005-10-09T08:40:15Z</time>
      </trkpt>
      <trkpt lat="44.288678169250488" lon="11.380205154418945">
        <ele>467.3381</ele>
        <time>2005-10-09T08:40:32Z</time>
      </trkpt>
      <trkpt lat="44.288721084594727" lon="11.380248069763184">
        <ele>467.3381</ele>
        <time>2005-10-09T08:40:34Z</time>
      </trkpt>
      <trkpt lat="44.288849830627441" lon="11.380805969238281">
        <ele>468.29930000000002</ele>
        <time>2005-10-09T08:45:42Z</time>
      </trkpt>
      <trkpt lat="44.289150238037109" lon="11.380805969238281">
        <ele>469.26069999999999</ele>
        <time>2005-10-09T08:45:57Z</time>
      </trkpt>
      <trkpt lat="44.289193153381348" lon="11.381170749664307">
        <ele>472.62540000000001</ele>
        <time>2005-10-09T08:46:10Z</time>
      </trkpt>
      <trkpt lat="44.289150238037109" lon="11.381556987762451">
        <ele>475.5093</ele>
        <time>2005-10-09T08:46:22Z</time>
      </trkpt>
      <trkpt lat="44.289150238037109" lon="11.382007598876953">
        <ele>477.43189999999998</ele>
        <time>2005-10-09T08:46:38Z</time>
      </trkpt>
      <trkpt lat="44.289257526397705" lon="11.382350921630859">
        <ele>480.79660000000001</ele>
        <time>2005-10-09T08:46:51Z</time>
      </trkpt>
      <trkpt lat="44.289429187774658" lon="11.382629871368408">
        <ele>484.16109999999998</ele>
        <time>2005-10-09T08:47:07Z</time>
      </trkpt>
      <trkpt lat="44.289557933807373" lon="11.382758617401123">
        <ele>487.5256</ele>
        <time>2005-10-09T08:47:20Z</time>
      </trkpt>
      <trkpt lat="44.289665222167969" lon="11.382973194122314">
        <ele>490.8904</ele>
        <time>2005-10-09T08:47:33Z</time>
      </trkpt>
      <trkpt lat="44.289729595184326" lon="11.383359432220459">
        <ele>493.77429999999998</ele>
        <time>2005-10-09T08:47:52Z</time>
      </trkpt>
      <trkpt lat="44.289729595184326" lon="11.383960247039795">
        <ele>492.33240000000001</ele>
        <time>2005-10-09T08:48:13Z</time>
      </trkpt>
      <trkpt lat="44.290072917938232" lon="11.384732723236084">
        <ele>491.85169999999999</ele>
        <time>2005-10-09T08:48:36Z</time>
      </trkpt>
      <trkpt lat="44.290566444396973" lon="11.385118961334229">
        <ele>494.255</ele>
        <time>2005-10-09T08:48:57Z</time>
      </trkpt>
      <trkpt lat="44.291102886199951" lon="11.385526657104492">
        <ele>493.77429999999998</ele>
        <time>2005-10-09T08:49:19Z</time>
      </trkpt>
      <trkpt lat="44.291360378265381" lon="11.385998725891113">
        <ele>495.21620000000001</ele>
        <time>2005-10-09T08:49:37Z</time>
      </trkpt>
      <trkpt lat="44.291617870330811" lon="11.386642456054688">
        <ele>492.81299999999999</ele>
        <time>2005-10-09T08:49:54Z</time>
      </trkpt>
      <trkpt lat="44.291789531707764" lon="11.387114524841309">
        <ele>491.37099999999998</ele>
        <time>2005-10-09T08:50:11Z</time>
      </trkpt>
      <trkpt lat="44.291810989379883" lon="11.387264728546143">
        <ele>489.44839999999999</ele>
        <time>2005-10-09T08:50:16Z</time>
      </trkpt>
      <trkpt lat="44.291832447052002" lon="11.3873291015625">
        <ele>489.44839999999999</ele>
        <time>2005-10-09T08:50:18Z</time>
      </trkpt>
      <trkpt lat="44.292004108428955" lon="11.387393474578857">
        <ele>485.60300000000001</ele>
        <time>2005-10-09T08:50:31Z</time>
      </trkpt>
      <trkpt lat="44.292261600494385" lon="11.387522220611572">
        <ele>485.12240000000003</ele>
        <time>2005-10-09T08:50:55Z</time>
      </trkpt>
      <trkpt lat="44.2923903465271" lon="11.38758659362793">
        <ele>481.75779999999997</ele>
        <time>2005-10-09T08:50:58Z</time>
      </trkpt>
      <trkpt lat="44.292583465576172" lon="11.387715339660645">
        <ele>477.91250000000002</ele>
        <time>2005-10-09T08:51:02Z</time>
      </trkpt>
      <trkpt lat="44.292776584625244" lon="11.38782262802124">
        <ele>475.02870000000001</ele>
        <time>2005-10-09T08:51:06Z</time>
      </trkpt>
      <trkpt lat="44.292862415313721" lon="11.387865543365479">
        <ele>471.18329999999997</ele>
        <time>2005-10-09T08:51:08Z</time>
      </trkpt>
      <trkpt lat="44.293012619018555" lon="11.387929916381836">
        <ele>467.3381</ele>
        <time>2005-10-09T08:51:11Z</time>
      </trkpt>
      <trkpt lat="44.29311990737915" lon="11.387972831726074">
        <ele>463.97340000000003</ele>
        <time>2005-10-09T08:51:13Z</time>
      </trkpt>
      <trkpt lat="44.293184280395508" lon="11.387972831726074">
        <ele>463.97340000000003</ele>
        <time>2005-10-09T08:51:14Z</time>
      </trkpt>
      <trkpt lat="44.293313026428223" lon="11.388015747070313">
        <ele>460.60879999999997</ele>
        <time>2005-10-09T08:51:16Z</time>
      </trkpt>
      <trkpt lat="44.29337739944458" lon="11.388037204742432">
        <ele>458.68619999999999</ele>
        <time>2005-10-09T08:51:17Z</time>
      </trkpt>
      <trkpt lat="44.293527603149414" lon="11.388251781463623">
        <ele>454.8408</ele>
        <time>2005-10-09T08:51:22Z</time>
      </trkpt>
      <trkpt lat="44.293549060821533" lon="11.3883376121521">
        <ele>453.87959999999998</ele>
        <time>2005-10-09T08:51:32Z</time>
      </trkpt>
      <trkpt lat="44.293570518493652" lon="11.3883376121521">
        <ele>453.87959999999998</ele>
        <time>2005-10-09T08:51:38Z</time>
      </trkpt>
      <trkpt lat="44.293656349182129" lon="11.388423442840576">
        <ele>450.03440000000001</ele>
        <time>2005-10-09T08:51:42Z</time>
      </trkpt>
      <trkpt lat="44.293656349182129" lon="11.388509273529053">
        <ele>448.5924</ele>
        <time>2005-10-09T08:52:19Z</time>
      </trkpt>
      <trkpt lat="44.29363489151001" lon="11.388552188873291">
        <ele>448.11180000000002</ele>
        <time>2005-10-09T08:52:38Z</time>
      </trkpt>
      <trkpt lat="44.293591976165771" lon="11.388680934906006">
        <ele>447.15030000000002</ele>
        <time>2005-10-09T08:52:47Z</time>
      </trkpt>
      <trkpt lat="44.293591976165771" lon="11.388852596282959">
        <ele>445.22770000000003</ele>
        <time>2005-10-09T08:52:50Z</time>
      </trkpt>
      <trkpt lat="44.293570518493652" lon="11.389303207397461">
        <ele>443.78579999999999</ele>
        <time>2005-10-09T08:52:57Z</time>
      </trkpt>
      <trkpt lat="44.29363489151001" lon="11.389539241790771">
        <ele>441.86320000000001</ele>
        <time>2005-10-09T08:53:01Z</time>
      </trkpt>
      <trkpt lat="44.293785095214844" lon="11.389753818511963">
        <ele>440.90190000000001</ele>
        <time>2005-10-09T08:53:07Z</time>
      </trkpt>
      <trkpt lat="44.294042587280273" lon="11.389946937561035">
        <ele>437.53710000000001</ele>
        <time>2005-10-09T08:53:15Z</time>
      </trkpt>
      <trkpt lat="44.294064044952393" lon="11.390032768249512">
        <ele>436.09519999999998</ele>
        <time>2005-10-09T08:53:16Z</time>
      </trkpt>
      <trkpt lat="44.294257164001465" lon="11.390440464019775">
        <ele>434.17259999999999</ele>
        <time>2005-10-09T08:53:24Z</time>
      </trkpt>
      <trkpt lat="44.294257164001465" lon="11.390440464019775">
        <ele>434.17259999999999</ele>
        <time>2005-10-09T08:53:25Z</time>
      </trkpt>
      <trkpt lat="44.294342994689941" lon="11.390676498413086">
        <ele>436.57589999999999</ele>
        <time>2005-10-09T08:53:41Z</time>
      </trkpt>
      <trkpt lat="44.29438591003418" lon="11.390719413757324">
        <ele>437.05650000000003</ele>
        <time>2005-10-09T08:53:45Z</time>
      </trkpt>
      <trkpt lat="44.294536113739014" lon="11.39082670211792">
        <ele>440.90190000000001</ele>
        <time>2005-10-09T08:54:01Z</time>
      </trkpt>
      <trkpt lat="44.294707775115967" lon="11.390976905822754">
        <ele>438.49849999999998</ele>
        <time>2005-10-09T08:54:11Z</time>
      </trkpt>
      <trkpt lat="44.294836521148682" lon="11.391191482543945">
        <ele>433.69189999999998</ele>
        <time>2005-10-09T08:54:15Z</time>
      </trkpt>
      <trkpt lat="44.295029640197754" lon="11.391384601593018">
        <ele>428.40469999999999</ele>
        <time>2005-10-09T08:54:20Z</time>
      </trkpt>
      <trkpt lat="44.295179843902588" lon="11.391513347625732">
        <ele>424.07870000000003</ele>
        <time>2005-10-09T08:54:24Z</time>
      </trkpt>
      <trkpt lat="44.295244216918945" lon="11.391556262969971">
        <ele>422.63670000000002</ele>
        <time>2005-10-09T08:54:26Z</time>
      </trkpt>
      <trkpt lat="44.295394420623779" lon="11.391642093658447">
        <ele>418.79149999999998</ele>
        <time>2005-10-09T08:54:30Z</time>
      </trkpt>
      <trkpt lat="44.295437335968018" lon="11.391663551330566">
        <ele>416.8689</ele>
        <time>2005-10-09T08:54:33Z</time>
      </trkpt>
      <trkpt lat="44.295480251312256" lon="11.391620635986328">
        <ele>414.94619999999998</ele>
        <time>2005-10-09T08:54:40Z</time>
      </trkpt>
      <trkpt lat="44.295523166656494" lon="11.39157772064209">
        <ele>414.46550000000002</ele>
        <time>2005-10-09T08:54:42Z</time>
      </trkpt>
      <trkpt lat="44.295501708984375" lon="11.391406059265137">
        <ele>410.62020000000001</ele>
        <time>2005-10-09T08:54:46Z</time>
      </trkpt>
      <trkpt lat="44.295523166656494" lon="11.391255855560303">
        <ele>406.29430000000002</ele>
        <time>2005-10-09T08:54:50Z</time>
      </trkpt>
      <trkpt lat="44.295544624328613" lon="11.391170024871826">
        <ele>403.41039999999998</ele>
        <time>2005-10-09T08:54:52Z</time>
      </trkpt>
      <trkpt lat="44.295566082000732" lon="11.391212940216064">
        <ele>401.00709999999998</ele>
        <time>2005-10-09T08:54:56Z</time>
      </trkpt>
      <trkpt lat="44.29563045501709" lon="11.391277313232422">
        <ele>397.1617</ele>
        <time>2005-10-09T08:55:00Z</time>
      </trkpt>
      <trkpt lat="44.295716285705566" lon="11.391341686248779">
        <ele>394.27800000000002</ele>
        <time>2005-10-09T08:55:03Z</time>
      </trkpt>
      <trkpt lat="44.295802116394043" lon="11.391341686248779">
        <ele>392.3553</ele>
        <time>2005-10-09T08:55:06Z</time>
      </trkpt>
      <trkpt lat="44.295909404754639" lon="11.391255855560303">
        <ele>388.02929999999998</ele>
        <time>2005-10-09T08:55:11Z</time>
      </trkpt>
      <trkpt lat="44.295973777770996" lon="11.391212940216064">
        <ele>384.66480000000001</ele>
        <time>2005-10-09T08:55:14Z</time>
      </trkpt>
      <trkpt lat="44.296102523803711" lon="11.391148567199707">
        <ele>380.81950000000001</ele>
        <time>2005-10-09T08:55:18Z</time>
      </trkpt>
      <trkpt lat="44.296145439147949" lon="11.391127109527588">
        <ele>378.89690000000002</ele>
        <time>2005-10-09T08:55:27Z</time>
      </trkpt>
      <trkpt lat="44.296166896820068" lon="11.390976905822754">
        <ele>378.41609999999997</ele>
        <time>2005-10-09T08:56:14Z</time>
      </trkpt>
      <trkpt lat="44.296295642852783" lon="11.391041278839111">
        <ele>378.89690000000002</ele>
        <time>2005-10-09T08:58:18Z</time>
      </trkpt>
      <trkpt lat="44.296231269836426" lon="11.390933990478516">
        <ele>376.01280000000003</ele>
        <time>2005-10-09T08:58:28Z</time>
      </trkpt>
      <trkpt lat="44.296145439147949" lon="11.390848159790039">
        <ele>372.16750000000002</ele>
        <time>2005-10-09T08:58:34Z</time>
      </trkpt>
      <trkpt lat="44.296102523803711" lon="11.390740871429443">
        <ele>368.803</ele>
        <time>2005-10-09T08:58:39Z</time>
      </trkpt>
      <trkpt lat="44.296081066131592" lon="11.390719413757324">
        <ele>367.84160000000003</ele>
        <time>2005-10-09T08:58:41Z</time>
      </trkpt>
      <trkpt lat="44.296059608459473" lon="11.390655040740967">
        <ele>364.4769</ele>
        <time>2005-10-09T08:58:43Z</time>
      </trkpt>
      <trkpt lat="44.296059608459473" lon="11.390590667724609">
        <ele>361.59309999999999</ele>
        <time>2005-10-09T08:58:47Z</time>
      </trkpt>
      <trkpt lat="44.296059608459473" lon="11.390547752380371">
        <ele>360.63170000000002</ele>
        <time>2005-10-09T08:58:49Z</time>
      </trkpt>
      <trkpt lat="44.29612398147583" lon="11.390461921691895">
        <ele>363.03500000000003</ele>
        <time>2005-10-09T08:59:02Z</time>
      </trkpt>
      <trkpt lat="44.296317100524902" lon="11.39056921005249">
        <ele>364.95760000000001</ele>
        <time>2005-10-09T08:59:12Z</time>
      </trkpt>
      <trkpt lat="44.296574592590332" lon="11.390740871429443">
        <ele>362.07369999999997</ele>
        <time>2005-10-09T08:59:23Z</time>
      </trkpt>
      <trkpt lat="44.29661750793457" lon="11.390805244445801">
        <ele>360.63170000000002</ele>
        <time>2005-10-09T08:59:25Z</time>
      </trkpt>
      <trkpt lat="44.296638965606689" lon="11.390976905822754">
        <ele>358.709</ele>
        <time>2005-10-09T08:59:30Z</time>
      </trkpt>
      <trkpt lat="44.296638965606689" lon="11.390998363494873">
        <ele>357.74779999999998</ele>
        <time>2005-10-09T08:59:32Z</time>
      </trkpt>
      <trkpt lat="44.296660423278809" lon="11.391041278839111">
        <ele>357.26710000000003</ele>
        <time>2005-10-09T08:59:50Z</time>
      </trkpt>
      <trkpt lat="44.296724796295166" lon="11.39108419418335">
        <ele>354.86380000000003</ele>
        <time>2005-10-09T09:00:41Z</time>
      </trkpt>
      <trkpt lat="44.296746253967285" lon="11.39108419418335">
        <ele>352.94119999999998</ele>
        <time>2005-10-09T09:00:43Z</time>
      </trkpt>
      <trkpt lat="44.296810626983643" lon="11.391105651855469">
        <ele>347.17320000000001</ele>
        <time>2005-10-09T09:00:47Z</time>
      </trkpt>
      <trkpt lat="44.296875" lon="11.391127109527588">
        <ele>343.80860000000001</ele>
        <time>2005-10-09T09:00:50Z</time>
      </trkpt>
      <trkpt lat="44.296917915344238" lon="11.391148567199707">
        <ele>340.44409999999999</ele>
        <time>2005-10-09T09:00:52Z</time>
      </trkpt>
      <trkpt lat="44.296982288360596" lon="11.391148567199707">
        <ele>337.56009999999998</ele>
        <time>2005-10-09T09:00:55Z</time>
      </trkpt>
      <trkpt lat="44.297175407409668" lon="11.391255855560303">
        <ele>336.59890000000001</ele>
        <time>2005-10-09T09:01:16Z</time>
      </trkpt>
      <trkpt lat="44.297239780426025" lon="11.391212940216064">
        <ele>336.1182</ele>
        <time>2005-10-09T09:02:07Z</time>
      </trkpt>
      <trkpt lat="44.297239780426025" lon="11.391341686248779">
        <ele>332.27280000000002</ele>
        <time>2005-10-09T09:03:04Z</time>
      </trkpt>
      <trkpt lat="44.297282695770264" lon="11.391363143920898">
        <ele>328.9083</ele>
        <time>2005-10-09T09:03:12Z</time>
      </trkpt>
      <trkpt lat="44.297304153442383" lon="11.391406059265137">
        <ele>325.54360000000003</ele>
        <time>2005-10-09T09:03:15Z</time>
      </trkpt>
      <trkpt lat="44.297325611114502" lon="11.391427516937256">
        <ele>322.65969999999999</ele>
        <time>2005-10-09T09:03:17Z</time>
      </trkpt>
      <trkpt lat="44.297325611114502" lon="11.391427516937256">
        <ele>322.17899999999997</ele>
        <time>2005-10-09T09:03:18Z</time>
      </trkpt>
      <trkpt lat="44.29736852645874" lon="11.391448974609375">
        <ele>318.33359999999999</ele>
        <time>2005-10-09T09:03:21Z</time>
      </trkpt>
      <trkpt lat="44.297411441802979" lon="11.391470432281494">
        <ele>314.00779999999997</ele>
        <time>2005-10-09T09:03:24Z</time>
      </trkpt>
      <trkpt lat="44.297475814819336" lon="11.391491889953613">
        <ele>310.6431</ele>
        <time>2005-10-09T09:03:27Z</time>
      </trkpt>
      <trkpt lat="44.297561645507812" lon="11.391513347625732">
        <ele>306.31729999999999</ele>
        <time>2005-10-09T09:03:31Z</time>
      </trkpt>
      <trkpt lat="44.297668933868408" lon="11.391491889953613">
        <ele>302.47190000000001</ele>
        <time>2005-10-09T09:03:36Z</time>
      </trkpt>
      <trkpt lat="44.297690391540527" lon="11.391491889953613">
        <ele>302.47190000000001</ele>
        <time>2005-10-09T09:03:37Z</time>
      </trkpt>
      <trkpt lat="44.297776222229004" lon="11.391470432281494">
        <ele>299.58800000000002</ele>
        <time>2005-10-09T09:03:41Z</time>
      </trkpt>
      <trkpt lat="44.29786205291748" lon="11.391427516937256">
        <ele>295.74270000000001</ele>
        <time>2005-10-09T09:03:53Z</time>
      </trkpt>
      <trkpt lat="44.29786205291748" lon="11.391427516937256">
        <ele>293.82010000000002</ele>
        <time>2005-10-09T09:03:55Z</time>
      </trkpt>
      <trkpt lat="44.298012256622314" lon="11.391363143920898">
        <ele>290.93619999999999</ele>
        <time>2005-10-09T09:04:35Z</time>
      </trkpt>
      <trkpt lat="44.298012256622314" lon="11.391363143920898">
        <ele>290.4556</ele>
        <time>2005-10-09T09:04:36Z</time>
      </trkpt>
      <trkpt lat="44.298033714294434" lon="11.391363143920898">
        <ele>289.01350000000002</ele>
        <time>2005-10-09T09:04:38Z</time>
      </trkpt>
      <trkpt lat="44.298055171966553" lon="11.391341686248779">
        <ele>284.68759999999997</ele>
        <time>2005-10-09T09:04:41Z</time>
      </trkpt>
      <trkpt lat="44.298055171966553" lon="11.39132022857666">
        <ele>284.68759999999997</ele>
        <time>2005-10-09T09:04:42Z</time>
      </trkpt>
      <trkpt lat="44.298055171966553" lon="11.391298770904541">
        <ele>284.68759999999997</ele>
        <time>2005-10-09T09:04:55Z</time>
      </trkpt>
      <trkpt lat="44.298033714294434" lon="11.391298770904541">
        <ele>282.76499999999999</ele>
        <time>2005-10-09T09:05:02Z</time>
      </trkpt>
      <trkpt lat="44.298055171966553" lon="11.391277313232422">
        <ele>279.40030000000002</ele>
        <time>2005-10-09T09:05:07Z</time>
      </trkpt>
      <trkpt lat="44.298269748687744" lon="11.391191482543945">
        <ele>279.40030000000002</ele>
        <time>2005-10-09T09:06:14Z</time>
      </trkpt>
      <trkpt lat="44.298291206359863" lon="11.391170024871826">
        <ele>278.43900000000002</ele>
        <time>2005-10-09T09:08:57Z</time>
      </trkpt>
      <trkpt lat="44.298334121704102" lon="11.391191482543945">
        <ele>274.113</ele>
        <time>2005-10-09T09:09:01Z</time>
      </trkpt>
      <trkpt lat="44.298355579376221" lon="11.391191482543945">
        <ele>274.113</ele>
        <time>2005-10-09T09:09:02Z</time>
      </trkpt>
      <trkpt lat="44.298398494720459" lon="11.391255855560303">
        <ele>270.7484</ele>
        <time>2005-10-09T09:09:07Z</time>
      </trkpt>
      <trkpt lat="44.298419952392578" lon="11.391255855560303">
        <ele>270.7484</ele>
        <time>2005-10-09T09:09:08Z</time>
      </trkpt>
      <trkpt lat="44.298462867736816" lon="11.391234397888184">
        <ele>269.78710000000001</ele>
        <time>2005-10-09T09:09:10Z</time>
      </trkpt>
      <trkpt lat="44.298505783081055" lon="11.391170024871826">
        <ele>268.3451</ele>
        <time>2005-10-09T09:09:13Z</time>
      </trkpt>
      <trkpt lat="44.298527240753174" lon="11.39108419418335">
        <ele>266.90320000000003</ele>
        <time>2005-10-09T09:09:16Z</time>
      </trkpt>
      <trkpt lat="44.29861307144165" lon="11.390998363494873">
        <ele>263.53859999999997</ele>
        <time>2005-10-09T09:09:19Z</time>
      </trkpt>
      <trkpt lat="44.298741817474365" lon="11.390912532806396">
        <ele>257.77080000000001</ele>
        <time>2005-10-09T09:09:23Z</time>
      </trkpt>
      <trkpt lat="44.298849105834961" lon="11.39082670211792">
        <ele>254.88659999999999</ele>
        <time>2005-10-09T09:09:26Z</time>
      </trkpt>
      <trkpt lat="44.298913478851318" lon="11.390762329101563">
        <ele>253.9254</ele>
        <time>2005-10-09T09:09:28Z</time>
      </trkpt>
      <trkpt lat="44.298934936523438" lon="11.390697956085205">
        <ele>252.48339999999999</ele>
        <time>2005-10-09T09:09:31Z</time>
      </trkpt>
      <trkpt lat="44.298934936523438" lon="11.390697956085205">
        <ele>252.964</ele>
        <time>2005-10-09T09:09:32Z</time>
      </trkpt>
      <trkpt lat="44.298892021179199" lon="11.390676498413086">
        <ele>252.964</ele>
        <time>2005-10-09T09:09:39Z</time>
      </trkpt>
      <trkpt lat="44.298784732818604" lon="11.390268802642822">
        <ele>249.11879999999999</ele>
        <time>2005-10-09T09:10:04Z</time>
      </trkpt>
      <trkpt lat="44.298763275146484" lon="11.390225887298584">
        <ele>248.1576</ele>
        <time>2005-10-09T09:10:06Z</time>
      </trkpt>
      <trkpt lat="44.298720359802246" lon="11.390118598937988">
        <ele>244.7928</ele>
        <time>2005-10-09T09:10:11Z</time>
      </trkpt>
      <trkpt lat="44.298462867736816" lon="11.389453411102295">
        <ele>246.23490000000001</ele>
        <time>2005-10-09T09:14:15Z</time>
      </trkpt>
      <trkpt lat="44.298226833343506" lon="11.388509273529053">
        <ele>247.67679999999999</ele>
        <time>2005-10-09T09:14:39Z</time>
      </trkpt>
      <trkpt lat="44.298334121704102" lon="11.387500762939453">
        <ele>250.5608</ele>
        <time>2005-10-09T09:15:05Z</time>
      </trkpt>
      <trkpt lat="44.298355579376221" lon="11.386792659759521">
        <ele>251.52209999999999</ele>
        <time>2005-10-09T09:15:25Z</time>
      </trkpt>
      <trkpt lat="44.298892021179199" lon="11.386299133300781">
        <ele>253.9254</ele>
        <time>2005-10-09T09:15:48Z</time>
      </trkpt>
      <trkpt lat="44.299342632293701" lon="11.385955810546875">
        <ele>256.32870000000003</ele>
        <time>2005-10-09T09:16:07Z</time>
      </trkpt>
      <trkpt lat="44.29987907409668" lon="11.385655403137207">
        <ele>258.7319</ele>
        <time>2005-10-09T09:16:29Z</time>
      </trkpt>
      <trkpt lat="44.300179481506348" lon="11.38533353805542">
        <ele>261.61599999999999</ele>
        <time>2005-10-09T09:16:45Z</time>
      </trkpt>
      <trkpt lat="44.300479888916016" lon="11.384947299957275">
        <ele>264.01929999999999</ele>
        <time>2005-10-09T09:17:02Z</time>
      </trkpt>
      <trkpt lat="44.300758838653564" lon="11.384367942810059">
        <ele>264.49990000000003</ele>
        <time>2005-10-09T09:17:20Z</time>
      </trkpt>
      <trkpt lat="44.30112361907959" lon="11.383745670318604">
        <ele>267.38389999999998</ele>
        <time>2005-10-09T09:17:43Z</time>
      </trkpt>
      <trkpt lat="44.3013596534729" lon="11.383466720581055">
        <ele>270.26769999999999</ele>
        <time>2005-10-09T09:17:56Z</time>
      </trkpt>
      <trkpt lat="44.301531314849854" lon="11.383016109466553">
        <ele>271.7097</ele>
        <time>2005-10-09T09:18:12Z</time>
      </trkpt>
      <trkpt lat="44.301466941833496" lon="11.382436752319336">
        <ele>275.55509999999998</ele>
        <time>2005-10-09T09:18:29Z</time>
      </trkpt>
      <trkpt lat="44.301466941833496" lon="11.382393836975098">
        <ele>275.0745</ele>
        <time>2005-10-09T09:18:30Z</time>
      </trkpt>
      <trkpt lat="44.301466941833496" lon="11.381771564483643">
        <ele>278.91969999999998</ele>
        <time>2005-10-09T09:18:49Z</time>
      </trkpt>
      <trkpt lat="44.301638603210449" lon="11.381299495697021">
        <ele>281.80360000000002</ele>
        <time>2005-10-09T09:19:06Z</time>
      </trkpt>
      <trkpt lat="44.301574230194092" lon="11.380913257598877">
        <ele>283.72620000000001</ele>
        <time>2005-10-09T09:19:21Z</time>
      </trkpt>
      <trkpt lat="44.301230907440186" lon="11.38084888458252">
        <ele>286.61020000000002</ele>
        <time>2005-10-09T09:19:36Z</time>
      </trkpt>
      <trkpt lat="44.301059246063232" lon="11.381320953369141">
        <ele>288.53300000000002</ele>
        <time>2005-10-09T09:19:53Z</time>
      </trkpt>
      <trkpt lat="44.300887584686279" lon="11.381750106811523">
        <ele>291.41669999999999</ele>
        <time>2005-10-09T09:20:08Z</time>
      </trkpt>
      <trkpt lat="44.300651550292969" lon="11.382265090942383">
        <ele>294.78140000000002</ele>
        <time>2005-10-09T09:20:26Z</time>
      </trkpt>
      <trkpt lat="44.30060863494873" lon="11.382350921630859">
        <ele>295.74270000000001</ele>
        <time>2005-10-09T09:20:29Z</time>
      </trkpt>
      <trkpt lat="44.300286769866943" lon="11.382887363433838">
        <ele>297.66539999999998</ele>
        <time>2005-10-09T09:20:49Z</time>
      </trkpt>
      <trkpt lat="44.299943447113037" lon="11.383295059204102">
        <ele>300.54930000000002</ele>
        <time>2005-10-09T09:21:07Z</time>
      </trkpt>
      <trkpt lat="44.299535751342773" lon="11.383702754974365">
        <ele>303.4332</ele>
        <time>2005-10-09T09:21:25Z</time>
      </trkpt>
      <trkpt lat="44.298956394195557" lon="11.384024620056152">
        <ele>305.35599999999999</ele>
        <time>2005-10-09T09:21:46Z</time>
      </trkpt>
      <trkpt lat="44.29887056350708" lon="11.384003162384033">
        <ele>305.35599999999999</ele>
        <time>2005-10-09T09:21:49Z</time>
      </trkpt>
      <trkpt lat="44.298934936523438" lon="11.383767127990723">
        <ele>307.27859999999998</ele>
        <time>2005-10-09T09:21:57Z</time>
      </trkpt>
      <trkpt lat="44.298977851867676" lon="11.383745670318604">
        <ele>308.23989999999998</ele>
        <time>2005-10-09T09:21:59Z</time>
      </trkpt>
      <trkpt lat="44.299170970916748" lon="11.383681297302246">
        <ele>309.68189999999998</ele>
        <time>2005-10-09T09:22:06Z</time>
      </trkpt>
      <trkpt lat="44.299492835998535" lon="11.383380889892578">
        <ele>313.04649999999998</ele>
        <time>2005-10-09T09:22:21Z</time>
      </trkpt>
      <trkpt lat="44.299664497375488" lon="11.382801532745361">
        <ele>315.44979999999998</ele>
        <time>2005-10-09T09:22:39Z</time>
      </trkpt>
      <trkpt lat="44.299750328063965" lon="11.382350921630859">
        <ele>318.33359999999999</ele>
        <time>2005-10-09T09:22:52Z</time>
      </trkpt>
      <trkpt lat="44.299814701080322" lon="11.381986141204834">
        <ele>321.69839999999999</ele>
        <time>2005-10-09T09:23:04Z</time>
      </trkpt>
      <trkpt lat="44.299707412719727" lon="11.381385326385498">
        <ele>324.58229999999998</ele>
        <time>2005-10-09T09:23:22Z</time>
      </trkpt>
      <trkpt lat="44.299750328063965" lon="11.380891799926758">
        <ele>326.98559999999998</ele>
        <time>2005-10-09T09:23:37Z</time>
      </trkpt>
      <trkpt lat="44.299900531768799" lon="11.380634307861328">
        <ele>329.86950000000002</ele>
        <time>2005-10-09T09:23:47Z</time>
      </trkpt>
      <trkpt lat="44.299921989440918" lon="11.380054950714111">
        <ele>332.27280000000002</ele>
        <time>2005-10-09T09:24:04Z</time>
      </trkpt>
      <trkpt lat="44.299793243408203" lon="11.379539966583252">
        <ele>335.63729999999998</ele>
        <time>2005-10-09T09:24:20Z</time>
      </trkpt>
      <trkpt lat="44.299793243408203" lon="11.379497051239014">
        <ele>336.59890000000001</ele>
        <time>2005-10-09T09:24:22Z</time>
      </trkpt>
      <trkpt lat="44.299793243408203" lon="11.378960609436035">
        <ele>338.04079999999999</ele>
        <time>2005-10-09T09:24:39Z</time>
      </trkpt>
      <trkpt lat="44.300007820129395" lon="11.378638744354248">
        <ele>340.92469999999997</ele>
        <time>2005-10-09T09:24:52Z</time>
      </trkpt>
      <trkpt lat="44.29987907409668" lon="11.378424167633057">
        <ele>343.3279</ele>
        <time>2005-10-09T09:25:02Z</time>
      </trkpt>
      <trkpt lat="44.299685955047607" lon="11.378617286682129">
        <ele>346.21199999999999</ele>
        <time>2005-10-09T09:25:12Z</time>
      </trkpt>
      <trkpt lat="44.299449920654297" lon="11.379024982452393">
        <ele>349.57650000000001</ele>
        <time>2005-10-09T09:25:29Z</time>
      </trkpt>
      <trkpt lat="44.299321174621582" lon="11.379539966583252">
        <ele>351.97989999999999</ele>
        <time>2005-10-09T09:25:47Z</time>
      </trkpt>
      <trkpt lat="44.299085140228271" lon="11.379947662353516">
        <ele>355.34449999999998</ele>
        <time>2005-10-09T09:26:03Z</time>
      </trkpt>
      <trkpt lat="44.298698902130127" lon="11.379990577697754">
        <ele>357.26710000000003</ele>
        <time>2005-10-09T09:26:20Z</time>
      </trkpt>
      <trkpt lat="44.298462867736816" lon="11.379754543304443">
        <ele>359.67039999999997</ele>
        <time>2005-10-09T09:26:33Z</time>
      </trkpt>
      <trkpt lat="44.298334121704102" lon="11.379325389862061">
        <ele>362.55430000000001</ele>
        <time>2005-10-09T09:26:49Z</time>
      </trkpt>
      <trkpt lat="44.298419952392578" lon="11.37883186340332">
        <ele>365.91890000000001</ele>
        <time>2005-10-09T09:27:06Z</time>
      </trkpt>
      <trkpt lat="44.298548698425293" lon="11.378381252288818">
        <ele>369.76429999999999</ele>
        <time>2005-10-09T09:27:21Z</time>
      </trkpt>
      <trkpt lat="44.298763275146484" lon="11.377866268157959">
        <ele>372.64819999999997</ele>
        <time>2005-10-09T09:27:40Z</time>
      </trkpt>
      <trkpt lat="44.298849105834961" lon="11.377780437469482">
        <ele>373.60950000000003</ele>
        <time>2005-10-09T09:27:45Z</time>
      </trkpt>
      <trkpt lat="44.299149513244629" lon="11.377480030059814">
        <ele>376.49349999999998</ele>
        <time>2005-10-09T09:28:01Z</time>
      </trkpt>
      <trkpt lat="44.299385547637939" lon="11.377286911010742">
        <ele>379.858</ele>
        <time>2005-10-09T09:28:12Z</time>
      </trkpt>
      <trkpt lat="44.299707412719727" lon="11.377007961273193">
        <ele>382.74209999999999</ele>
        <time>2005-10-09T09:28:27Z</time>
      </trkpt>
      <trkpt lat="44.300007820129395" lon="11.376729011535645">
        <ele>385.62599999999998</ele>
        <time>2005-10-09T09:28:43Z</time>
      </trkpt>
      <trkpt lat="44.300394058227539" lon="11.376364231109619">
        <ele>388.99059999999997</ele>
        <time>2005-10-09T09:29:02Z</time>
      </trkpt>
      <trkpt lat="44.300694465637207" lon="11.376299858093262">
        <ele>391.3938</ele>
        <time>2005-10-09T09:29:21Z</time>
      </trkpt>
      <trkpt lat="44.300823211669922" lon="11.376321315765381">
        <ele>391.3938</ele>
        <time>2005-10-09T09:35:10Z</time>
      </trkpt>
      <trkpt lat="44.30112361907959" lon="11.376471519470215">
        <ele>391.3938</ele>
        <time>2005-10-09T09:35:24Z</time>
      </trkpt>
      <trkpt lat="44.301574230194092" lon="11.376750469207764">
        <ele>389.47120000000001</ele>
        <time>2005-10-09T09:35:35Z</time>
      </trkpt>
      <trkpt lat="44.301660060882568" lon="11.376814842224121">
        <ele>389.47120000000001</ele>
        <time>2005-10-09T09:35:37Z</time>
      </trkpt>
      <trkpt lat="44.301810264587402" lon="11.376857757568359">
        <ele>388.50999999999999</ele>
        <time>2005-10-09T09:35:40Z</time>
      </trkpt>
      <trkpt lat="44.301853179931641" lon="11.376879215240479">
        <ele>388.02929999999998</ele>
        <time>2005-10-09T09:35:41Z</time>
      </trkpt>
      <trkpt lat="44.302132129669189" lon="11.376943588256836">
        <ele>388.02929999999998</ele>
        <time>2005-10-09T09:35:46Z</time>
      </trkpt>
      <trkpt lat="44.302840232849121" lon="11.377072334289551">
        <ele>386.10669999999999</ele>
        <time>2005-10-09T09:36:00Z</time>
      </trkpt>
      <trkpt lat="44.303419589996338" lon="11.377437114715576">
        <ele>386.5874</ele>
        <time>2005-10-09T09:36:15Z</time>
      </trkpt>
      <trkpt lat="44.303998947143555" lon="11.377758979797363">
        <ele>389.47120000000001</ele>
        <time>2005-10-09T09:36:32Z</time>
      </trkpt>
      <trkpt lat="44.304320812225342" lon="11.377995014190674">
        <ele>390.43259999999998</ele>
        <time>2005-10-09T09:36:44Z</time>
      </trkpt>
      <trkpt lat="44.304749965667725" lon="11.378295421600342">
        <ele>392.83589999999998</ele>
        <time>2005-10-09T09:37:01Z</time>
      </trkpt>
      <trkpt lat="44.305243492126465" lon="11.37859582901001">
        <ele>394.75850000000003</ele>
        <time>2005-10-09T09:37:22Z</time>
      </trkpt>
      <trkpt lat="44.305822849273682" lon="11.378982067108154">
        <ele>393.79719999999998</ele>
        <time>2005-10-09T09:37:44Z</time>
      </trkpt>
      <trkpt lat="44.306402206420898" lon="11.37958288192749">
        <ele>393.31650000000002</ele>
        <time>2005-10-09T09:38:04Z</time>
      </trkpt>
      <trkpt lat="44.306681156158447" lon="11.379904747009277">
        <ele>396.68119999999999</ele>
        <time>2005-10-09T09:38:17Z</time>
      </trkpt>
      <trkpt lat="44.306917190551758" lon="11.380140781402588">
        <ele>399.08440000000002</ele>
        <time>2005-10-09T09:38:28Z</time>
      </trkpt>
      <trkpt lat="44.307281970977783" lon="11.380527019500732">
        <ele>401.96850000000001</ele>
        <time>2005-10-09T09:38:46Z</time>
      </trkpt>
      <trkpt lat="44.307453632354736" lon="11.380698680877686">
        <ele>404.85230000000001</ele>
        <time>2005-10-09T09:38:54Z</time>
      </trkpt>
      <trkpt lat="44.307732582092285" lon="11.381042003631592">
        <ele>408.21699999999998</ele>
        <time>2005-10-09T09:39:10Z</time>
      </trkpt>
      <trkpt lat="44.307839870452881" lon="11.381170749664307">
        <ele>411.101</ele>
        <time>2005-10-09T09:39:17Z</time>
      </trkpt>
      <trkpt lat="44.308032989501953" lon="11.38134241104126">
        <ele>414.46550000000002</ele>
        <time>2005-10-09T09:39:30Z</time>
      </trkpt>
      <trkpt lat="44.308226108551025" lon="11.381492614746094">
        <ele>417.83019999999999</ele>
        <time>2005-10-09T09:39:43Z</time>
      </trkpt>
      <trkpt lat="44.308440685272217" lon="11.381771564483643">
        <ele>419.75279999999998</ele>
        <time>2005-10-09T09:40:01Z</time>
      </trkpt>
      <trkpt lat="44.30861234664917" lon="11.381943225860596">
        <ele>423.11739999999998</ele>
        <time>2005-10-09T09:40:13Z</time>
      </trkpt>
      <trkpt lat="44.30884838104248" lon="11.382200717926025">
        <ele>426.4821</ele>
        <time>2005-10-09T09:40:30Z</time>
      </trkpt>
      <trkpt lat="44.309084415435791" lon="11.382393836975098">
        <ele>426.96280000000002</ele>
        <time>2005-10-09T09:53:50Z</time>
      </trkpt>
      <trkpt lat="44.309127330780029" lon="11.382436752319336">
        <ele>426.96280000000002</ele>
        <time>2005-10-09T09:53:52Z</time>
      </trkpt>
      <trkpt lat="44.30936336517334" lon="11.38258695602417">
        <ele>429.84660000000002</ele>
        <time>2005-10-09T09:54:09Z</time>
      </trkpt>
      <trkpt lat="44.309535026550293" lon="11.382694244384766">
        <ele>433.69189999999998</ele>
        <time>2005-10-09T09:54:20Z</time>
      </trkpt>
      <trkpt lat="44.309535026550293" lon="11.382694244384766">
        <ele>433.69189999999998</ele>
        <time>2005-10-09T09:54:21Z</time>
      </trkpt>
      <trkpt lat="44.309813976287842" lon="11.382865905761719">
        <ele>436.57589999999999</ele>
        <time>2005-10-09T09:54:39Z</time>
      </trkpt>
      <trkpt lat="44.31011438369751" lon="11.383101940155029">
        <ele>439.4597</ele>
        <time>2005-10-09T09:55:00Z</time>
      </trkpt>
      <trkpt lat="44.310436248779297" lon="11.38333797454834">
        <ele>442.34390000000002</ele>
        <time>2005-10-09T09:55:23Z</time>
      </trkpt>
      <trkpt lat="44.310736656188965" lon="11.383552551269531">
        <ele>444.74709999999999</ele>
        <time>2005-10-09T09:55:44Z</time>
      </trkpt>
      <trkpt lat="44.311079978942871" lon="11.383810043334961">
        <ele>448.11180000000002</ele>
        <time>2005-10-09T09:56:06Z</time>
      </trkpt>
      <trkpt lat="44.311380386352539" lon="11.384046077728271">
        <ele>450.99560000000002</ele>
        <time>2005-10-09T09:56:27Z</time>
      </trkpt>
      <trkpt lat="44.311659336090088" lon="11.384239196777344">
        <ele>453.87959999999998</ele>
        <time>2005-10-09T09:56:45Z</time>
      </trkpt>
      <trkpt lat="44.312088489532471" lon="11.384282112121582">
        <ele>455.32150000000001</ele>
        <time>2005-10-09T09:57:09Z</time>
      </trkpt>
      <trkpt lat="44.312496185302734" lon="11.384303569793701">
        <ele>458.2056</ele>
        <time>2005-10-09T09:57:31Z</time>
      </trkpt>
      <trkpt lat="44.312818050384521" lon="11.384367942810059">
        <ele>460.60879999999997</ele>
        <time>2005-10-09T09:57:51Z</time>
      </trkpt>
      <trkpt lat="44.312989711761475" lon="11.384367942810059">
        <ele>463.49279999999999</ele>
        <time>2005-10-09T09:58:02Z</time>
      </trkpt>
      <trkpt lat="44.313247203826904" lon="11.384389400482178">
        <ele>467.3381</ele>
        <time>2005-10-09T09:58:18Z</time>
      </trkpt>
      <trkpt lat="44.313504695892334" lon="11.384475231170654">
        <ele>470.22190000000001</ele>
        <time>2005-10-09T09:58:34Z</time>
      </trkpt>
      <trkpt lat="44.313654899597168" lon="11.384775638580322">
        <ele>473.58670000000001</ele>
        <time>2005-10-09T09:58:51Z</time>
      </trkpt>
      <trkpt lat="44.313719272613525" lon="11.385097503662109">
        <ele>476.9513</ele>
        <time>2005-10-09T09:59:06Z</time>
      </trkpt>
      <trkpt lat="44.313933849334717" lon="11.385183334350586">
        <ele>479.83510000000001</ele>
        <time>2005-10-09T09:59:20Z</time>
      </trkpt>
      <trkpt lat="44.314191341400146" lon="11.385033130645752">
        <ele>482.23849999999999</ele>
        <time>2005-10-09T09:59:40Z</time>
      </trkpt>
      <trkpt lat="44.314320087432861" lon="11.385033130645752">
        <ele>483.68040000000002</ele>
        <time>2005-10-09T09:59:55Z</time>
      </trkpt>
      <trkpt lat="44.314513206481934" lon="11.38533353805542">
        <ele>481.75779999999997</ele>
        <time>2005-10-09T10:01:55Z</time>
      </trkpt>
      <trkpt lat="44.314663410186768" lon="11.385483741760254">
        <ele>480.3159</ele>
        <time>2005-10-09T10:01:58Z</time>
      </trkpt>
      <trkpt lat="44.314920902252197" lon="11.385655403137207">
        <ele>476.9513</ele>
        <time>2005-10-09T10:02:02Z</time>
      </trkpt>
      <trkpt lat="44.315264225006104" lon="11.385869979858398">
        <ele>475.02870000000001</ele>
        <time>2005-10-09T10:02:11Z</time>
      </trkpt>
      <trkpt lat="44.315757751464844" lon="11.386063098907471">
        <ele>472.1447</ele>
        <time>2005-10-09T10:02:25Z</time>
      </trkpt>
      <trkpt lat="44.316143989562988" lon="11.386191844940186">
        <ele>470.22190000000001</ele>
        <time>2005-10-09T10:02:39Z</time>
      </trkpt>
      <trkpt lat="44.316401481628418" lon="11.386299133300781">
        <ele>468.29930000000002</ele>
        <time>2005-10-09T10:02:46Z</time>
      </trkpt>
      <trkpt lat="44.316508769989014" lon="11.38634204864502">
        <ele>467.3381</ele>
        <time>2005-10-09T10:02:48Z</time>
      </trkpt>
      <trkpt lat="44.31659460067749" lon="11.386470794677734">
        <ele>466.85739999999998</ele>
        <time>2005-10-09T10:02:51Z</time>
      </trkpt>
      <trkpt lat="44.316616058349609" lon="11.386599540710449">
        <ele>466.37670000000003</ele>
        <time>2005-10-09T10:02:53Z</time>
      </trkpt>
      <trkpt lat="44.316658973693848" lon="11.386706829071045">
        <ele>465.89609999999999</ele>
        <time>2005-10-09T10:02:55Z</time>
      </trkpt>
      <trkpt lat="44.316916465759277" lon="11.387565135955811">
        <ele>463.97340000000003</ele>
        <time>2005-10-09T10:03:10Z</time>
      </trkpt>
      <trkpt lat="44.31710958480835" lon="11.387844085693359">
        <ele>463.01209999999998</ele>
        <time>2005-10-09T10:03:21Z</time>
      </trkpt>
      <trkpt lat="44.317173957824707" lon="11.387887001037598">
        <ele>462.05079999999998</ele>
        <time>2005-10-09T10:03:24Z</time>
      </trkpt>
      <trkpt lat="44.317216873168945" lon="11.388659477233887">
        <ele>462.05079999999998</ele>
        <time>2005-10-09T10:03:37Z</time>
      </trkpt>
      <trkpt lat="44.317324161529541" lon="11.389474868774414">
        <ele>461.5702</ele>
        <time>2005-10-09T10:03:53Z</time>
      </trkpt>
      <trkpt lat="44.317517280578613" lon="11.389667987823486">
        <ele>459.64760000000001</ele>
        <time>2005-10-09T10:03:58Z</time>
      </trkpt>
      <trkpt lat="44.317796230316162" lon="11.389861106872559">
        <ele>460.12819999999999</ele>
        <time>2005-10-09T10:04:05Z</time>
      </trkpt>
      <trkpt lat="44.318010807037354" lon="11.389968395233154">
        <ele>460.60879999999997</ele>
        <time>2005-10-09T10:04:10Z</time>
      </trkpt>
      <trkpt lat="44.318225383758545" lon="11.390032768249512">
        <ele>458.2056</ele>
        <time>2005-10-09T10:04:14Z</time>
      </trkpt>
      <trkpt lat="44.318718910217285" lon="11.390204429626465">
        <ele>458.68619999999999</ele>
        <time>2005-10-09T10:04:26Z</time>
      </trkpt>
      <trkpt lat="44.319040775299072" lon="11.390290260314941">
        <ele>458.68619999999999</ele>
        <time>2005-10-09T10:04:39Z</time>
      </trkpt>
      <trkpt lat="44.319427013397217" lon="11.390290260314941">
        <ele>457.72500000000002</ele>
        <time>2005-10-09T10:04:57Z</time>
      </trkpt>
      <trkpt lat="44.319620132446289" lon="11.390290260314941">
        <ele>456.76350000000002</ele>
        <time>2005-10-09T10:05:02Z</time>
      </trkpt>
      <trkpt lat="44.319705963134766" lon="11.390376091003418">
        <ele>455.80220000000003</ele>
        <time>2005-10-09T10:05:05Z</time>
      </trkpt>
      <trkpt lat="44.31983470916748" lon="11.390526294708252">
        <ele>452.91820000000001</ele>
        <time>2005-10-09T10:05:09Z</time>
      </trkpt>
      <trkpt lat="44.319963455200195" lon="11.390676498413086">
        <ele>450.03440000000001</ele>
        <time>2005-10-09T10:05:13Z</time>
      </trkpt>
      <trkpt lat="44.320006370544434" lon="11.390719413757324">
        <ele>448.5924</ele>
        <time>2005-10-09T10:05:14Z</time>
      </trkpt>
      <trkpt lat="44.320135116577148" lon="11.390783786773682">
        <ele>447.15030000000002</ele>
        <time>2005-10-09T10:05:17Z</time>
      </trkpt>
      <trkpt lat="44.320306777954102" lon="11.390848159790039">
        <ele>443.78579999999999</ele>
        <time>2005-10-09T10:05:21Z</time>
      </trkpt>
      <trkpt lat="44.32034969329834" lon="11.390869617462158">
        <ele>443.30509999999998</ele>
        <time>2005-10-09T10:05:22Z</time>
      </trkpt>
      <trkpt lat="44.320414066314697" lon="11.390891075134277">
        <ele>441.86320000000001</ele>
        <time>2005-10-09T10:05:24Z</time>
      </trkpt>
      <trkpt lat="44.32058572769165" lon="11.390891075134277">
        <ele>438.97910000000002</ele>
        <time>2005-10-09T10:05:28Z</time>
      </trkpt>
      <trkpt lat="44.321208000183105" lon="11.390912532806396">
        <ele>437.53710000000001</ele>
        <time>2005-10-09T10:05:41Z</time>
      </trkpt>
      <trkpt lat="44.321250915527344" lon="11.390933990478516">
        <ele>437.05650000000003</ele>
        <time>2005-10-09T10:05:42Z</time>
      </trkpt>
      <trkpt lat="44.321422576904297" lon="11.391212940216064">
        <ele>433.69189999999998</ele>
        <time>2005-10-09T10:05:56Z</time>
      </trkpt>
      <trkpt lat="44.321808815002441" lon="11.391556262969971">
        <ele>425.52080000000001</ele>
        <time>2005-10-09T10:08:52Z</time>
      </trkpt>
      <trkpt lat="44.321894645690918" lon="11.391663551330566">
        <ele>422.63670000000002</ele>
        <time>2005-10-09T10:08:54Z</time>
      </trkpt>
      <trkpt lat="44.322023391723633" lon="11.391856670379639">
        <ele>418.79149999999998</ele>
        <time>2005-10-09T10:08:57Z</time>
      </trkpt>
      <trkpt lat="44.322195053100586" lon="11.392049789428711">
        <ele>414.46550000000002</ele>
        <time>2005-10-09T10:09:01Z</time>
      </trkpt>
      <trkpt lat="44.32234525680542" lon="11.392500400543213">
        <ele>408.69760000000002</ele>
        <time>2005-10-09T10:09:05Z</time>
      </trkpt>
      <trkpt lat="44.322495460510254" lon="11.392757892608643">
        <ele>404.85230000000001</ele>
        <time>2005-10-09T10:09:08Z</time>
      </trkpt>
      <trkpt lat="44.32258129119873" lon="11.392886638641357">
        <ele>401.48779999999999</ele>
        <time>2005-10-09T10:09:10Z</time>
      </trkpt>
      <trkpt lat="44.32283878326416" lon="11.393358707427979">
        <ele>395.71980000000002</ele>
        <time>2005-10-09T10:09:16Z</time>
      </trkpt>
      <trkpt lat="44.322860240936279" lon="11.393465995788574">
        <ele>393.79719999999998</ele>
        <time>2005-10-09T10:09:18Z</time>
      </trkpt>
      <trkpt lat="44.322967529296875" lon="11.393680572509766">
        <ele>390.91320000000002</ele>
        <time>2005-10-09T10:09:22Z</time>
      </trkpt>
      <trkpt lat="44.323246479034424" lon="11.393744945526123">
        <ele>387.54860000000002</ele>
        <time>2005-10-09T10:09:27Z</time>
      </trkpt>
      <trkpt lat="44.323418140411377" lon="11.393766403198242">
        <ele>385.62599999999998</ele>
        <time>2005-10-09T10:09:30Z</time>
      </trkpt>
      <trkpt lat="44.323675632476807" lon="11.39380931854248">
        <ele>382.74209999999999</ele>
        <time>2005-10-09T10:09:34Z</time>
      </trkpt>
      <trkpt lat="44.323804378509521" lon="11.3938307762146">
        <ele>381.78059999999999</ele>
        <time>2005-10-09T10:09:36Z</time>
      </trkpt>
      <trkpt lat="44.323868751525879" lon="11.3938307762146">
        <ele>381.30000000000001</ele>
        <time>2005-10-09T10:09:37Z</time>
      </trkpt>
      <trkpt lat="44.324147701263428" lon="11.394045352935791">
        <ele>376.49349999999998</ele>
        <time>2005-10-09T10:09:41Z</time>
      </trkpt>
      <trkpt lat="44.324233531951904" lon="11.394131183624268">
        <ele>375.05149999999998</ele>
        <time>2005-10-09T10:09:42Z</time>
      </trkpt>
      <trkpt lat="44.324190616607666" lon="11.394302845001221">
        <ele>371.2063</ele>
        <time>2005-10-09T10:09:56Z</time>
      </trkpt>
      <trkpt lat="44.324169158935547" lon="11.39432430267334">
        <ele>369.28370000000001</ele>
        <time>2005-10-09T10:09:57Z</time>
      </trkpt>
      <trkpt lat="44.324040412902832" lon="11.394646167755127">
        <ele>362.55430000000001</ele>
        <time>2005-10-09T10:10:01Z</time>
      </trkpt>
      <trkpt lat="44.323997497558594" lon="11.394925117492676">
        <ele>358.22840000000002</ele>
        <time>2005-10-09T10:10:06Z</time>
      </trkpt>
      <trkpt lat="44.323825836181641" lon="11.394946575164795">
        <ele>358.709</ele>
        <time>2005-10-09T10:10:28Z</time>
      </trkpt>
      <trkpt lat="44.323782920837402" lon="11.395161151885986">
        <ele>356.78640000000001</ele>
        <time>2005-10-09T10:10:32Z</time>
      </trkpt>
      <trkpt lat="44.323718547821045" lon="11.395397186279297">
        <ele>355.34449999999998</ele>
        <time>2005-10-09T10:10:35Z</time>
      </trkpt>
      <trkpt lat="44.323697090148926" lon="11.395504474639893">
        <ele>352.94119999999998</ele>
        <time>2005-10-09T10:10:37Z</time>
      </trkpt>
      <trkpt lat="44.323654174804688" lon="11.395654678344727">
        <ele>349.57650000000001</ele>
        <time>2005-10-09T10:10:41Z</time>
      </trkpt>
      <trkpt lat="44.323611259460449" lon="11.395740509033203">
        <ele>348.61520000000002</ele>
        <time>2005-10-09T10:10:43Z</time>
      </trkpt>
      <trkpt lat="44.32358980178833" lon="11.396019458770752">
        <ele>344.76999999999998</ele>
        <time>2005-10-09T10:10:48Z</time>
      </trkpt>
      <trkpt lat="44.323654174804688" lon="11.396234035491943">
        <ele>340.44409999999999</ele>
        <time>2005-10-09T10:10:52Z</time>
      </trkpt>
      <trkpt lat="44.323761463165283" lon="11.396512985229492">
        <ele>338.5215</ele>
        <time>2005-10-09T10:10:57Z</time>
      </trkpt>
      <trkpt lat="44.323804378509521" lon="11.396663188934326">
        <ele>336.59890000000001</ele>
        <time>2005-10-09T10:10:59Z</time>
      </trkpt>
      <trkpt lat="44.323868751525879" lon="11.396770477294922">
        <ele>335.63729999999998</ele>
        <time>2005-10-09T10:11:01Z</time>
      </trkpt>
      <trkpt lat="44.323954582214355" lon="11.397092342376709">
        <ele>331.7921</ele>
        <time>2005-10-09T10:11:06Z</time>
      </trkpt>
      <trkpt lat="44.324061870574951" lon="11.397736072540283">
        <ele>328.42759999999998</ele>
        <time>2005-10-09T10:11:15Z</time>
      </trkpt>
      <trkpt lat="44.324104785919189" lon="11.398208141326904">
        <ele>325.06299999999999</ele>
        <time>2005-10-09T10:11:22Z</time>
      </trkpt>
      <trkpt lat="44.324126243591309" lon="11.398336887359619">
        <ele>324.58229999999998</ele>
        <time>2005-10-09T10:11:24Z</time>
      </trkpt>
      <trkpt lat="44.324169158935547" lon="11.398615837097168">
        <ele>321.69839999999999</ele>
        <time>2005-10-09T10:11:29Z</time>
      </trkpt>
      <trkpt lat="44.324169158935547" lon="11.398658752441406">
        <ele>321.69839999999999</ele>
        <time>2005-10-09T10:11:30Z</time>
      </trkpt>
      <trkpt lat="44.324061870574951" lon="11.398615837097168">
        <ele>318.8143</ele>
        <time>2005-10-09T10:11:34Z</time>
      </trkpt>
      <trkpt lat="44.323868751525879" lon="11.39857292175293">
        <ele>315.44979999999998</ele>
        <time>2005-10-09T10:11:38Z</time>
      </trkpt>
      <trkpt lat="44.323740005493164" lon="11.39880895614624">
        <ele>313.04649999999998</ele>
        <time>2005-10-09T10:11:43Z</time>
      </trkpt>
      <trkpt lat="44.323890209197998" lon="11.39930248260498">
        <ele>308.72050000000002</ele>
        <time>2005-10-09T10:11:49Z</time>
      </trkpt>
      <trkpt lat="44.323933124542236" lon="11.399452686309814">
        <ele>307.27859999999998</ele>
        <time>2005-10-09T10:11:51Z</time>
      </trkpt>
      <trkpt lat="44.323976039886475" lon="11.399602890014648">
        <ele>303.4332</ele>
        <time>2005-10-09T10:11:53Z</time>
      </trkpt>
      <trkpt lat="44.323997497558594" lon="11.399688720703125">
        <ele>303.4332</ele>
        <time>2005-10-09T10:11:54Z</time>
      </trkpt>
      <trkpt lat="44.324061870574951" lon="11.399838924407959">
        <ele>300.54930000000002</ele>
        <time>2005-10-09T10:11:56Z</time>
      </trkpt>
      <trkpt lat="44.324126243591309" lon="11.400160789489746">
        <ele>296.70409999999998</ele>
        <time>2005-10-09T10:12:00Z</time>
      </trkpt>
      <trkpt lat="44.324212074279785" lon="11.400632858276367">
        <ele>291.41669999999999</ele>
        <time>2005-10-09T10:12:06Z</time>
      </trkpt>
      <trkpt lat="44.3243408203125" lon="11.400847434997559">
        <ele>288.05220000000003</ele>
        <time>2005-10-09T10:12:11Z</time>
      </trkpt>
      <trkpt lat="44.324448108673096" lon="11.400890350341797">
        <ele>287.0908</ele>
        <time>2005-10-09T10:12:13Z</time>
      </trkpt>
      <trkpt lat="44.324576854705811" lon="11.400997638702393">
        <ele>285.16820000000001</ele>
        <time>2005-10-09T10:12:15Z</time>
      </trkpt>
      <trkpt lat="44.324791431427002" lon="11.401190757751465">
        <ele>279.8809</ele>
        <time>2005-10-09T10:12:18Z</time>
      </trkpt>
      <trkpt lat="44.325048923492432" lon="11.40131950378418">
        <ele>274.59379999999999</ele>
        <time>2005-10-09T10:12:21Z</time>
      </trkpt>
      <trkpt lat="44.325392246246338" lon="11.401298046112061">
        <ele>269.78710000000001</ele>
        <time>2005-10-09T10:12:25Z</time>
      </trkpt>
      <trkpt lat="44.32558536529541" lon="11.401276588439941">
        <ele>264.98059999999998</ele>
        <time>2005-10-09T10:12:28Z</time>
      </trkpt>
      <trkpt lat="44.325606822967529" lon="11.401298046112061">
        <ele>264.49990000000003</ele>
        <time>2005-10-09T10:12:29Z</time>
      </trkpt>
      <trkpt lat="44.325628280639648" lon="11.401362419128418">
        <ele>260.65449999999998</ele>
        <time>2005-10-09T10:12:40Z</time>
      </trkpt>
      <trkpt lat="44.325520992279053" lon="11.401426792144775">
        <ele>260.65449999999998</ele>
        <time>2005-10-09T10:13:30Z</time>
      </trkpt>
      <trkpt lat="44.325456619262695" lon="11.401877403259277">
        <ele>256.32870000000003</ele>
        <time>2005-10-09T10:13:37Z</time>
      </trkpt>
      <trkpt lat="44.325435161590576" lon="11.402156352996826">
        <ele>252.00280000000001</ele>
        <time>2005-10-09T10:13:40Z</time>
      </trkpt>
      <trkpt lat="44.325370788574219" lon="11.402435302734375">
        <ele>247.67679999999999</ele>
        <time>2005-10-09T10:13:43Z</time>
      </trkpt>
      <trkpt lat="44.325242042541504" lon="11.402521133422852">
        <ele>247.196</ele>
        <time>2005-10-09T10:13:45Z</time>
      </trkpt>
      <trkpt lat="44.325048923492432" lon="11.402521133422852">
        <ele>245.7542</ele>
        <time>2005-10-09T10:13:47Z</time>
      </trkpt>
      <trkpt lat="44.324297904968262" lon="11.40282154083252">
        <ele>243.35079999999999</ele>
        <time>2005-10-09T10:13:56Z</time>
      </trkpt>
      <trkpt lat="44.324104785919189" lon="11.402885913848877">
        <ele>242.3896</ele>
        <time>2005-10-09T10:13:58Z</time>
      </trkpt>
      <trkpt lat="44.32384729385376" lon="11.402993202209473">
        <ele>239.0249</ele>
        <time>2005-10-09T10:14:01Z</time>
      </trkpt>
      <trkpt lat="44.323611259460449" lon="11.402864456176758">
        <ele>235.1797</ele>
        <time>2005-10-09T10:14:04Z</time>
      </trkpt>
      <trkpt lat="44.323377152904868" lon="11.402667481452227">
        <ele>233.25710000000001</ele>
        <time>2005-10-09T10:14:06Z</time>
      </trkpt>
      <trkpt lat="44.323269864544272" lon="11.402731854468584">
        <ele>230.85380000000001</ele>
        <time>2005-10-09T10:14:08Z</time>
      </trkpt>
      <trkpt lat="44.323205491527915" lon="11.402796227484941">
        <ele>229.89230000000001</ele>
        <time>2005-10-09T10:14:09Z</time>
      </trkpt>
      <trkpt lat="44.322862168774009" lon="11.403182465583086">
        <ele>225.08590000000001</ele>
        <time>2005-10-09T10:14:14Z</time>
      </trkpt>
      <trkpt lat="44.32258321903646" lon="11.403225380927324">
        <ele>221.2406</ele>
        <time>2005-10-09T10:14:17Z</time>
      </trkpt>
      <trkpt lat="44.322387669235468" lon="11.40325547195971">
        <ele>221.2406</ele>
      </trkpt>
      <trkpt lat="44.322433015331626" lon="11.403397042304277">
        <ele>218.35659999999999</ele>
        <time>2005-10-09T10:14:22Z</time>
      </trkpt>
      <trkpt lat="44.322518846020103" lon="11.403418499976397">
        <ele>217.3954</ele>
        <time>2005-10-09T10:14:24Z</time>
      </trkpt>
      <trkpt lat="44.322647592052817" lon="11.403418499976397">
        <ele>216.91470000000001</ele>
        <time>2005-10-09T10:14:26Z</time>
      </trkpt>
      <trkpt lat="44.322776338085532" lon="11.403439957648516">
        <ele>215.95320000000001</ele>
        <time>2005-10-09T10:14:28Z</time>
      </trkpt>
      <trkpt lat="44.323017150163651" lon="11.403443310409784">
        <ele>215.95320000000001</ele>
      </trkpt>
      <trkpt lat="44.323182106018066" lon="11.403872966766357">
        <ele>212.58860000000001</ele>
        <time>2005-10-09T10:14:33Z</time>
      </trkpt>
      <trkpt lat="44.323267936706543" lon="11.40406608581543">
        <ele>211.62739999999999</ele>
        <time>2005-10-09T10:14:35Z</time>
      </trkpt>
      <trkpt lat="44.323289394378662" lon="11.404194831848145">
        <ele>210.18539999999999</ele>
        <time>2005-10-09T10:14:37Z</time>
      </trkpt>
    </trkseg>
  </trk>

  <trk>
    <name>M_Bibele3 v</name>
    <trkseg>
      <trkpt lat="44.322265964001417" lon="11.39227157458663">
        <ele>0</ele>
      </trkpt>
      <trkpt lat="44.321800265461206" lon="11.392557146027684">
        <ele>0</ele>
      </trkpt>
      <trkpt lat="44.321685768663883" lon="11.393074980005622">
        <ele>0</ele>
      </trkpt>
      <trkpt lat="44.321899423375726" lon="11.393644362688065">
        <ele>0</ele>
      </trkpt>
      <trkpt lat="44.32189179584384" lon="11.393941920250654">
        <ele>0</ele>
      </trkpt>
      <trkpt lat="44.321990953758359" lon="11.394410133361816">
        <ele>0</ele>
      </trkpt>
      <trkpt lat="44.321922305971384" lon="11.394628565758467">
        <ele>0</ele>
      </trkpt>
      <trkpt lat="44.32197192683816" lon="11.394773488864303">
        <ele>0</ele>
      </trkpt>
      <trkpt lat="44.321918450295925" lon="11.394968032836914">
        <ele>0</ele>
      </trkpt>
      <trkpt lat="44.321910822764039" lon="11.395162576809525">
        <ele>0</ele>
      </trkpt>
      <trkpt lat="44.321998581290245" lon="11.395662305876613">
        <ele>0</ele>
      </trkpt>
      <trkpt lat="44.32201006449759" lon="11.396278375759721">
        <ele>0</ele>
      </trkpt>
      <trkpt lat="44.322021463885903" lon="11.396817248314619">
        <ele>0</ele>
      </trkpt>
      <trkpt lat="44.322380041703582" lon="11.398128513246775">
        <ele>0</ele>
      </trkpt>
      <trkpt lat="44.322391524910927" lon="11.399234756827354">
        <ele>0</ele>
      </trkpt>
      <trkpt lat="44.322605095803738" lon="11.399525608867407">
        <ele>0</ele>
      </trkpt>
      <trkpt lat="44.322624206542969" lon="11.399682015180588">
        <ele>0</ele>
      </trkpt>
      <trkpt lat="44.322582213208079" lon="11.39975837431848">
        <ele>0</ele>
      </trkpt>
      <trkpt lat="44.322380041703582" lon="11.399749740958214">
        <ele>0</ele>
      </trkpt>
      <trkpt lat="44.322277028113604" lon="11.399804139509797">
        <ele>0</ele>
      </trkpt>
      <trkpt lat="44.32226562872529" lon="11.399923330172896">
        <ele>0</ele>
      </trkpt>
      <trkpt lat="44.322521192952991" lon="11.400394476950169">
        <ele>0</ele>
      </trkpt>
      <trkpt lat="44.322753874585032" lon="11.400676695629954">
        <ele>0</ele>
      </trkpt>
      <trkpt lat="44.322963673621416" lon="11.400808375328779">
        <ele>0</ele>
      </trkpt>
      <trkpt lat="44.322959901764989" lon="11.400947598740458">
        <ele>0</ele>
      </trkpt>
      <trkpt lat="44.323101053014398" lon="11.401164019480348">
        <ele>0</ele>
      </trkpt>
      <trkpt lat="44.323184955865145" lon="11.401154547929764">
        <ele>0</ele>
      </trkpt>
      <trkpt lat="44.323345217853785" lon="11.400953298434615">
        <ele>0</ele>
      </trkpt>
      <trkpt lat="44.323406238108873" lon="11.401050528511405">
        <ele>0</ele>
      </trkpt>
      <trkpt lat="44.323402382433414" lon="11.40120224095881">
        <ele>0</ele>
      </trkpt>
      <trkpt lat="44.32337187230587" lon="11.401574146002531">
        <ele>0</ele>
      </trkpt>
      <trkpt lat="44.323364244773984" lon="11.401843037456274">
        <ele>0</ele>
      </trkpt>
      <trkpt lat="44.323238348588347" lon="11.40254401601851">
        <ele>0</ele>
      </trkpt>
      <trkpt lat="44.323269864544272" lon="11.402731854468584">
        <ele>230.85380000000001</ele>
      </trkpt>
    </trkseg>
  </trk>

</gpx>
